Time,TemperatureF,DewpointF,PressureIn,WindDirection,WindDirectionDegrees,WindSpeedMPH,WindSpeedGustMPH,Humidity,HourlyPrecipIn,Conditions,Clouds,dailyrainin,SoftwareType,DateUTC
2013-11-21 00:00:00,33.3,16.2,30.53,NNE,22,0.0,0.0,49,0.00,,SKC,-99.99,VWS V14.01,2013-11-21 05:00:00,
2013-11-21 00:01:00,33.3,16.2,30.53,NNE,22,0.0,0.0,49,0.00,,SKC,-99.99,VWS V14.01,2013-11-21 05:01:00,
2013-11-21 00:02:00,33.3,16.2,30.53,NNE,22,0.0,0.0,49,0.00,,SKC,-99.99,VWS V14.01,2013-11-21 05:02:00,
2013-11-21 00:04:00,33.3,16.2,30.53,NNE,22,0.0,0.0,49,0.00,,SKC,-99.99,VWS V14.01,2013-11-21 05:04:00,
2013-11-21 00:06:00,33.3,16.2,30.53,NNE,22,0.0,0.0,49,0.00,,SKC,-99.99,VWS V14.01,2013-11-21 05:06:00,
2013-11-21 00:07:00,33.3,16.6,30.53,NNE,22,0.0,0.0,50,0.00,,SKC,-99.99,VWS V14.01,2013-11-21 05:07:00,
2013-11-21 00:08:00,33.3,16.6,30.53,NNE,22,0.0,0.0,50,0.00,,SKC,-99.99,VWS V14.01,2013-11-21 05:08:00,
2013-11-21 00:10:00,33.3,16.6,30.53,NE,45,0.0,0.0,50,0.00,,SKC,-99.99,VWS V14.01,2013-11-21 05:10:00,
2013-11-21 00:12:00,33.3,16.6,30.53,NE,45,0.0,0.0,50,0.00,,SKC,-99.99,VWS V14.01,2013-11-21 05:12:00,
2013-11-21 00:14:00,33.3,16.6,30.53,NE,45,0.0,0.0,50,0.00,,SKC,-99.99,VWS V14.01,2013-11-21 05:14:00,
2013-11-21 00:16:00,33.3,16.6,30.53,NE,45,0.0,0.0,50,0.00,,SKC,-99.99,VWS V14.01,2013-11-21 05:16:00,
2013-11-21 00:17:00,33.3,16.6,30.53,NE,45,0.0,0.0,50,0.00,,SKC,-99.99,VWS V14.01,2013-11-21 05:17:00,
2013-11-21 00:18:00,33.3,16.6,30.53,NE,45,0.0,0.0,50,0.00,,SKC,-99.99,VWS V14.01,2013-11-21 05:18:00,
2013-11-21 00:20:00,33.3,16.6,30.53,NE,45,0.0,0.0,50,0.00,,SKC,-99.99,VWS V14.01,2013-11-21 05:20:00,
2013-11-21 00:22:00,33.3,16.6,30.53,NE,45,0.0,0.0,50,0.00,,SKC,-99.99,VWS V14.01,2013-11-21 05:22:00,
2013-11-21 00:24:00,33.3,16.6,30.50,NE,45,0.0,0.0,50,0.00,,SKC,-99.99,VWS V14.01,2013-11-21 05:24:00,
2013-11-21 00:26:00,33.3,16.6,30.50,NE,45,0.0,0.0,50,0.00,,SKC,-99.99,VWS V14.01,2013-11-21 05:26:00,
2013-11-21 00:27:00,33.3,16.6,30.50,ENE,68,2.7,2.7,50,0.00,,SKC,-99.99,VWS V14.01,2013-11-21 05:27:00,
2013-11-21 00:28:00,33.3,16.6,30.50,ENE,68,2.0,2.7,50,0.00,,SKC,-99.99,VWS V14.01,2013-11-21 05:28:00,
2013-11-21 00:30:00,33.3,16.6,30.50,NE,45,2.2,2.2,50,0.00,,SKC,-99.99,VWS V14.01,2013-11-21 05:30:00,
2013-11-21 00:32:00,33.3,16.6,30.50,NE,45,3.1,3.1,50,0.00,,SKC,-99.99,VWS V14.01,2013-11-21 05:32:00,
2013-11-21 00:34:00,33.3,17.1,30.50,NNE,22,0.0,2.7,51,0.00,,SKC,-99.99,VWS V14.01,2013-11-21 05:34:00,
2013-11-21 00:36:00,33.3,16.6,30.50,NE,45,0.0,2.2,50,0.00,,SKC,-99.99,VWS V14.01,2013-11-21 05:36:00,
2013-11-21 00:37:00,33.4,16.8,30.50,ENE,68,2.2,2.2,50,0.00,,SKC,-99.99,VWS V14.01,2013-11-21 05:37:00,
2013-11-21 00:38:00,33.4,16.8,30.50,NE,45,2.5,2.5,50,0.00,,SKC,-99.99,VWS V14.01,2013-11-21 05:38:00,
2013-11-21 00:40:00,33.6,17.4,30.50,NE,45,1.1,2.7,51,0.00,,SKC,-99.99,VWS V14.01,2013-11-21 05:40:00,
2013-11-21 00:42:00,33.6,17.4,30.50,ESE,112,1.6,5.6,51,0.00,,SKC,-99.99,VWS V14.01,2013-11-21 05:42:00,
2013-11-21 00:44:00,33.6,17.4,30.50,ENE,68,2.0,2.9,51,0.00,,SKC,-99.99,VWS V14.01,2013-11-21 05:44:00,
2013-11-21 00:46:00,33.8,17.1,30.50,ENE,68,2.5,3.4,50,0.00,,SKC,-99.99,VWS V14.01,2013-11-21 05:46:00,
2013-11-21 00:47:00,33.8,17.1,30.50,NE,45,4.7,4.7,50,0.00,,SKC,-99.99,VWS V14.01,2013-11-21 05:47:00,
2013-11-21 00:48:00,33.8,17.1,30.50,SE,135,2.7,4.7,50,0.00,,SKC,-99.99,VWS V14.01,2013-11-21 05:48:00,
2013-11-21 00:50:00,34.0,17.3,30.50,NE,45,3.6,3.6,50,0.00,,SKC,-99.99,VWS V14.01,2013-11-21 05:50:00,
2013-11-21 00:52:00,34.0,17.3,30.50,ESE,112,1.3,2.0,50,0.00,,SKC,-99.99,VWS V14.01,2013-11-21 05:52:00,
2013-11-21 00:54:00,34.0,17.3,30.53,NE,45,4.3,4.3,50,0.00,,SKC,-99.99,VWS V14.01,2013-11-21 05:54:00,
2013-11-21 00:56:00,34.2,17.5,30.53,East,90,3.4,3.4,50,0.00,,SKC,-99.99,VWS V14.01,2013-11-21 05:56:00,
2013-11-21 00:57:00,34.2,17.5,30.53,NNE,22,2.7,3.1,50,0.00,,SKC,-99.99,VWS V14.01,2013-11-21 05:57:00,
2013-11-21 00:58:00,34.2,17.5,30.53,ENE,68,2.0,3.1,50,0.00,,SKC,-99.99,VWS V14.01,2013-11-21 05:58:00,
2013-11-21 01:00:00,34.3,17.6,30.53,NE,45,0.9,2.0,50,0.00,,SKC,-99.99,VWS V14.01,2013-11-21 06:00:00,
2013-11-21 01:02:00,34.3,17.6,30.53,NNE,22,5.8,5.8,50,0.00,,SKC,-99.99,VWS V14.01,2013-11-21 06:02:00,
2013-11-21 01:03:00,34.3,17.6,30.53,NE,45,3.8,3.8,50,0.00,,SKC,-99.99,VWS V14.01,2013-11-21 06:03:00,
2013-11-21 01:04:00,34.3,17.6,30.53,NNE,22,1.6,3.8,50,0.00,,SKC,-99.99,VWS V14.01,2013-11-21 06:04:00,
2013-11-21 01:06:00,34.3,17.6,30.53,North,0,2.7,2.7,50,0.00,,SKC,-99.99,VWS V14.01,2013-11-21 06:06:00,
2013-11-21 01:08:00,34.3,17.6,30.53,ENE,68,0.9,4.3,50,0.00,,SKC,-99.99,VWS V14.01,2013-11-21 06:08:00,
2013-11-21 01:10:00,34.3,17.6,30.53,NNE,22,1.3,1.3,50,0.00,,SKC,-99.99,VWS V14.01,2013-11-21 06:10:00,
2013-11-21 01:12:00,34.3,17.6,30.53,East,90,1.6,2.0,50,0.00,,SKC,-99.99,VWS V14.01,2013-11-21 06:12:00,
2013-11-21 01:13:00,34.3,17.2,30.53,SE,135,0.0,0.0,49,0.00,,SKC,-99.99,VWS V14.01,2013-11-21 06:13:00,
2013-11-21 01:14:00,34.3,17.2,30.53,SE,135,0.0,0.0,49,0.00,,SKC,-99.99,VWS V14.01,2013-11-21 06:14:00,
2013-11-21 01:16:00,34.3,17.2,30.53,East,90,0.0,0.0,49,0.00,,SKC,-99.99,VWS V14.01,2013-11-21 06:16:00,
2013-11-21 01:18:00,34.5,17.3,30.53,East,90,5.4,5.8,49,0.00,,SKC,-99.99,VWS V14.01,2013-11-21 06:18:00,
2013-11-21 01:20:00,34.5,17.3,30.53,East,90,2.2,5.8,49,0.00,,SKC,-99.99,VWS V14.01,2013-11-21 06:20:00,
2013-11-21 01:22:00,34.5,17.3,30.53,ENE,68,2.0,2.5,49,0.00,,SKC,-99.99,VWS V14.01,2013-11-21 06:22:00,
2013-11-21 01:23:00,34.5,17.3,30.53,South,180,0.9,2.7,49,0.00,,SKC,-99.99,VWS V14.01,2013-11-21 06:23:00,
2013-11-21 01:24:00,34.5,17.8,30.53,ENE,68,0.0,2.7,50,0.00,,SKC,-99.99,VWS V14.01,2013-11-21 06:24:00,
2013-11-21 01:26:00,34.5,17.8,30.53,East,90,0.0,2.5,50,0.00,,SKC,-99.99,VWS V14.01,2013-11-21 06:26:00,
2013-11-21 01:28:00,34.7,18.0,30.53,ENE,68,3.8,7.2,50,0.00,,SKC,-99.99,VWS V14.01,2013-11-21 06:28:00,
2013-11-21 01:30:00,34.7,18.0,30.53,ESE,112,3.1,7.2,50,0.00,,SKC,-99.99,VWS V14.01,2013-11-21 06:30:00,
2013-11-21 01:32:00,34.9,18.1,30.53,ENE,68,3.6,4.3,50,0.00,,SKC,-99.99,VWS V14.01,2013-11-21 06:32:00,
2013-11-21 01:33:00,34.9,18.1,30.53,NE,45,0.0,4.0,50,0.00,,SKC,-99.99,VWS V14.01,2013-11-21 06:33:00,
2013-11-21 01:34:00,34.9,18.1,30.53,ENE,68,6.3,6.3,50,0.00,,SKC,-99.99,VWS V14.01,2013-11-21 06:34:00,
2013-11-21 01:36:00,34.9,18.1,30.53,East,90,2.0,5.4,50,0.00,,SKC,-99.99,VWS V14.01,2013-11-21 06:36:00,
2013-11-21 01:38:00,34.9,18.1,30.53,NE,45,4.3,4.7,50,0.00,,SKC,-99.99,VWS V14.01,2013-11-21 06:38:00,
2013-11-21 01:40:00,34.9,18.1,30.53,ESE,112,2.7,4.9,50,0.00,,SKC,-99.99,VWS V14.01,2013-11-21 06:40:00,
2013-11-21 01:42:00,34.9,18.1,30.53,NE,45,2.9,4.7,50,0.00,,SKC,-99.99,VWS V14.01,2013-11-21 06:42:00,
2013-11-21 01:43:00,34.9,18.1,30.53,SE,135,2.9,3.8,50,0.00,,SKC,-99.99,VWS V14.01,2013-11-21 06:43:00,
2013-11-21 01:44:00,34.9,18.1,30.53,NE,45,2.9,3.8,50,0.00,,SKC,-99.99,VWS V14.01,2013-11-21 06:44:00,
2013-11-21 01:46:00,34.9,18.1,30.53,ENE,68,6.3,6.3,50,0.00,,SKC,-99.99,VWS V14.01,2013-11-21 06:46:00,
2013-11-21 01:48:00,35.1,18.3,30.53,ENE,68,3.6,5.8,50,0.00,,SKC,-99.99,VWS V14.01,2013-11-21 06:48:00,
2013-11-21 01:50:00,35.1,18.3,30.53,NE,45,0.0,3.8,50,0.00,,SKC,-99.99,VWS V14.01,2013-11-21 06:50:00,
2013-11-21 01:52:00,35.1,18.3,30.53,NE,45,5.6,5.6,50,0.00,,SKC,-99.99,VWS V14.01,2013-11-21 06:52:00,
2013-11-21 01:53:00,35.1,18.3,30.53,NE,45,3.4,5.4,50,0.00,,SKC,-99.99,VWS V14.01,2013-11-21 06:53:00,
2013-11-21 01:54:00,35.1,18.3,30.53,NE,45,3.4,5.4,50,0.00,,SKC,-99.99,VWS V14.01,2013-11-21 06:54:00,
2013-11-21 01:56:00,35.1,18.3,30.53,ENE,68,3.4,4.7,50,0.00,,SKC,-99.99,VWS V14.01,2013-11-21 06:56:00,
2013-11-21 01:58:00,35.1,18.3,30.53,ENE,68,4.7,4.7,50,0.00,,SKC,-99.99,VWS V14.01,2013-11-21 06:58:00,
2013-11-21 01:59:00,35.1,18.3,30.53,East,90,2.2,4.7,50,0.00,,SKC,-99.99,VWS V14.01,2013-11-21 06:59:00,
2013-11-21 02:00:00,34.9,18.1,30.53,NE,45,3.6,3.6,50,0.00,,SKC,-99.99,VWS V14.01,2013-11-21 07:00:00,
2013-11-21 02:02:00,34.9,18.1,30.53,NE,45,2.5,2.9,50,0.00,,SKC,-99.99,VWS V14.01,2013-11-21 07:02:00,
2013-11-21 02:04:00,34.9,18.1,30.53,ENE,68,3.8,4.9,50,0.00,,SKC,-99.99,VWS V14.01,2013-11-21 07:04:00,
2013-11-21 02:06:00,34.9,18.1,30.53,NE,45,2.2,4.0,50,0.00,,SKC,-99.99,VWS V14.01,2013-11-21 07:06:00,
2013-11-21 02:08:00,34.9,18.1,30.53,ENE,68,0.9,3.6,50,0.00,,SKC,-99.99,VWS V14.01,2013-11-21 07:08:00,
2013-11-21 02:09:00,34.9,18.1,30.53,NE,45,0.0,3.4,50,0.00,,SKC,-99.99,VWS V14.01,2013-11-21 07:09:00,
2013-11-21 02:10:00,34.9,18.1,30.53,ENE,68,2.7,2.7,50,0.00,,SKC,-99.99,VWS V14.01,2013-11-21 07:10:00,
2013-11-21 02:12:00,34.9,17.7,30.53,NE,45,3.1,4.3,49,0.00,,SKC,-99.99,VWS V14.01,2013-11-21 07:12:00,
2013-11-21 02:14:00,34.9,17.7,30.53,East,90,3.6,4.7,49,0.00,,SKC,-99.99,VWS V14.01,2013-11-21 07:14:00,
2013-11-21 02:16:00,34.9,17.7,30.53,NE,45,2.7,3.4,49,0.00,,SKC,-99.99,VWS V14.01,2013-11-21 07:16:00,
2013-11-21 02:18:00,34.9,17.7,30.53,NE,45,3.1,3.1,49,0.00,,SKC,-99.99,VWS V14.01,2013-11-21 07:18:00,
2013-11-21 02:19:00,34.9,17.7,30.53,ENE,68,1.1,3.1,49,0.00,,SKC,-99.99,VWS V14.01,2013-11-21 07:19:00,
2013-11-21 02:20:00,34.9,17.7,30.53,NE,45,4.3,4.3,49,0.00,,SKC,-99.99,VWS V14.01,2013-11-21 07:20:00,
2013-11-21 02:22:00,34.9,17.7,30.53,ENE,68,3.1,3.8,49,0.00,,SKC,-99.99,VWS V14.01,2013-11-21 07:22:00,
2013-11-21 02:24:00,34.9,17.7,30.53,NE,45,0.0,4.3,49,0.00,,SKC,-99.99,VWS V14.01,2013-11-21 07:24:00,
2013-11-21 02:26:00,34.9,17.7,30.53,ENE,68,2.9,5.8,49,0.00,,SKC,-99.99,VWS V14.01,2013-11-21 07:26:00,
2013-11-21 02:28:00,34.9,17.7,30.53,NE,45,6.5,6.5,49,0.00,,SKC,-99.99,VWS V14.01,2013-11-21 07:28:00,
2013-11-21 02:29:00,35.1,17.4,30.53,East,90,3.8,6.5,48,0.00,,SKC,-99.99,VWS V14.01,2013-11-21 07:29:00,
2013-11-21 02:30:00,35.1,17.4,30.53,NNE,22,3.6,4.3,48,0.00,,SKC,-99.99,VWS V14.01,2013-11-21 07:30:00,
2013-11-21 02:32:00,35.1,17.4,30.53,ENE,68,4.0,4.0,48,0.00,,SKC,-99.99,VWS V14.01,2013-11-21 07:32:00,
2013-11-21 02:34:00,35.1,17.4,30.53,ENE,68,0.9,3.8,48,0.00,,SKC,-99.99,VWS V14.01,2013-11-21 07:34:00,
2013-11-21 02:36:00,35.1,17.4,30.53,East,90,0.0,4.0,48,0.00,,SKC,-99.99,VWS V14.01,2013-11-21 07:36:00,
2013-11-21 02:38:00,35.1,17.4,30.53,East,90,2.0,4.9,48,0.00,,SKC,-99.99,VWS V14.01,2013-11-21 07:38:00,
2013-11-21 02:39:00,35.1,17.4,30.53,North,0,2.2,4.3,48,0.00,,SKC,-99.99,VWS V14.01,2013-11-21 07:39:00,
2013-11-21 02:40:00,35.1,17.4,30.53,NE,45,2.7,3.1,48,0.00,,SKC,-99.99,VWS V14.01,2013-11-21 07:40:00,
2013-11-21 02:42:00,35.1,17.4,30.53,ENE,68,2.7,6.0,48,0.00,,SKC,-99.99,VWS V14.01,2013-11-21 07:42:00,
2013-11-21 02:44:00,35.1,17.4,30.53,NE,45,4.3,4.3,48,0.00,,SKC,-99.99,VWS V14.01,2013-11-21 07:44:00,
2013-11-21 02:46:00,34.9,17.2,30.53,NE,45,2.9,5.4,48,0.00,,SKC,-99.99,VWS V14.01,2013-11-21 07:46:00,
2013-11-21 02:48:00,34.9,17.2,30.53,ENE,68,3.4,6.9,48,0.00,,SKC,-99.99,VWS V14.01,2013-11-21 07:48:00,
2013-11-21 02:49:00,34.9,17.2,30.53,NE,45,1.6,6.3,48,0.00,,SKC,-99.99,VWS V14.01,2013-11-21 07:49:00,
2013-11-21 02:50:00,34.9,17.2,30.53,NE,45,0.0,2.9,48,0.00,,SKC,-99.99,VWS V14.01,2013-11-21 07:50:00,
2013-11-21 02:52:00,34.9,17.2,30.53,NE,45,1.3,4.3,48,0.00,,SKC,-99.99,VWS V14.01,2013-11-21 07:52:00,
2013-11-21 02:54:00,34.9,17.2,30.50,ENE,68,3.1,3.8,48,0.00,,SKC,-99.99,VWS V14.01,2013-11-21 07:54:00,
2013-11-21 02:56:00,34.9,17.2,30.50,East,90,0.0,4.9,48,0.00,,SKC,-99.99,VWS V14.01,2013-11-21 07:56:00,
2013-11-21 02:58:00,34.9,17.2,30.50,SE,135,2.0,3.1,48,0.00,,SKC,-99.99,VWS V14.01,2013-11-21 07:58:00,
2013-11-21 02:59:00,34.9,17.2,30.50,SE,135,2.5,2.5,48,0.00,,SKC,-99.99,VWS V14.01,2013-11-21 07:59:00,
2013-11-21 03:00:00,34.9,17.2,30.50,East,90,0.0,2.7,48,0.00,,SKC,-99.99,VWS V14.01,2013-11-21 08:00:00,
2013-11-21 03:02:00,34.9,17.2,30.50,East,90,2.0,3.1,48,0.00,,SKC,-99.99,VWS V14.01,2013-11-21 08:02:00,
2013-11-21 03:04:00,34.9,17.2,30.50,ESE,112,0.0,2.5,48,0.00,,SKC,-99.99,VWS V14.01,2013-11-21 08:04:00,
2013-11-21 03:06:00,34.9,17.2,30.50,NE,45,0.0,4.7,48,0.00,,SKC,-99.99,VWS V14.01,2013-11-21 08:06:00,
2013-11-21 03:08:00,34.9,17.2,30.50,ENE,68,0.0,4.9,48,0.00,,SKC,-99.99,VWS V14.01,2013-11-21 08:08:00,
2013-11-21 03:09:00,34.9,17.2,30.50,ENE,68,2.5,4.0,48,0.00,,SKC,-99.99,VWS V14.01,2013-11-21 08:09:00,
2013-11-21 03:10:00,34.9,17.2,30.50,NE,45,0.0,4.0,48,0.00,,SKC,-99.99,VWS V14.01,2013-11-21 08:10:00,
2013-11-21 03:12:00,34.7,17.0,30.50,NE,45,0.0,2.7,48,0.00,,SKC,-99.99,VWS V14.01,2013-11-21 08:12:00,
2013-11-21 03:14:00,34.7,17.0,30.50,ENE,68,1.6,2.9,48,0.00,,SKC,-99.99,VWS V14.01,2013-11-21 08:14:00,
2013-11-21 03:16:00,34.7,17.0,30.50,NE,45,2.5,2.9,48,0.00,,SKC,-99.99,VWS V14.01,2013-11-21 08:16:00,
2013-11-21 03:18:00,34.5,16.9,30.50,East,90,0.0,2.2,48,0.00,,SKC,-99.99,VWS V14.01,2013-11-21 08:18:00,
2013-11-21 03:19:00,34.5,16.9,30.50,East,90,0.0,2.2,48,0.00,,SKC,-99.99,VWS V14.01,2013-11-21 08:19:00,
2013-11-21 03:20:00,34.5,16.9,30.50,East,90,0.0,0.0,48,0.00,,SKC,-99.99,VWS V14.01,2013-11-21 08:20:00,
2013-11-21 03:22:00,34.5,16.9,30.50,East,90,2.5,2.7,48,0.00,,SKC,-99.99,VWS V14.01,2013-11-21 08:22:00,
2013-11-21 03:24:00,34.5,16.9,30.53,ESE,112,1.1,1.3,48,0.00,,SKC,-99.99,VWS V14.01,2013-11-21 08:24:00,
2013-11-21 03:26:00,34.5,16.9,30.53,SE,135,0.0,2.5,48,0.00,,SKC,-99.99,VWS V14.01,2013-11-21 08:26:00,
2013-11-21 03:28:00,34.5,16.9,30.53,NE,45,0.0,2.9,48,0.00,,SKC,-99.99,VWS V14.01,2013-11-21 08:28:00,
2013-11-21 03:29:00,34.5,16.9,30.53,ENE,68,4.7,4.7,48,0.00,,SKC,-99.99,VWS V14.01,2013-11-21 08:29:00,
2013-11-21 03:30:00,34.5,16.9,30.53,ENE,68,4.0,4.7,48,0.00,,SKC,-99.99,VWS V14.01,2013-11-21 08:30:00,
2013-11-21 03:32:00,34.3,16.7,30.53,SE,135,1.6,2.7,48,0.00,,SKC,-99.99,VWS V14.01,2013-11-21 08:32:00,
2013-11-21 03:34:00,34.3,16.7,30.53,NE,45,0.0,0.0,48,0.00,,SKC,-99.99,VWS V14.01,2013-11-21 08:34:00,
2013-11-21 03:36:00,34.3,16.7,30.53,NE,45,0.0,2.7,48,0.00,,SKC,-99.99,VWS V14.01,2013-11-21 08:36:00,
2013-11-21 03:38:00,34.3,16.7,30.53,NNE,22,1.3,2.7,48,0.00,,SKC,-99.99,VWS V14.01,2013-11-21 08:38:00,
2013-11-21 03:39:00,34.3,16.7,30.53,NNE,22,2.7,2.7,48,0.00,,SKC,-99.99,VWS V14.01,2013-11-21 08:39:00,
2013-11-21 03:40:00,34.3,16.7,30.53,NE,45,1.1,2.7,48,0.00,,SKC,-99.99,VWS V14.01,2013-11-21 08:40:00,
2013-11-21 03:42:00,34.3,16.7,30.53,NE,45,1.1,1.1,48,0.00,,SKC,-99.99,VWS V14.01,2013-11-21 08:42:00,
2013-11-21 03:44:00,34.2,16.5,30.53,NE,45,0.0,2.9,48,0.00,,SKC,-99.99,VWS V14.01,2013-11-21 08:44:00,
2013-11-21 03:46:00,34.2,16.5,30.53,ENE,68,1.6,2.2,48,0.00,,SKC,-99.99,VWS V14.01,2013-11-21 08:46:00,
2013-11-21 03:48:00,34.2,16.5,30.53,ENE,68,0.0,1.3,48,0.00,,SKC,-99.99,VWS V14.01,2013-11-21 08:48:00,
2013-11-21 03:49:00,34.0,16.4,30.53,NNE,22,1.3,2.7,48,0.00,,SKC,-99.99,VWS V14.01,2013-11-21 08:49:00,
2013-11-21 03:50:00,34.0,16.4,30.53,NE,45,1.3,1.3,48,0.00,,SKC,-99.99,VWS V14.01,2013-11-21 08:50:00,
2013-11-21 03:52:00,34.0,16.4,30.53,ENE,68,2.0,2.7,48,0.00,,SKC,-99.99,VWS V14.01,2013-11-21 08:52:00,
2013-11-21 03:54:00,34.0,16.4,30.53,NE,45,4.0,4.0,48,0.00,,SKC,-99.99,VWS V14.01,2013-11-21 08:54:00,
2013-11-21 03:56:00,34.0,16.4,30.53,ENE,68,2.2,2.2,48,0.00,,SKC,-99.99,VWS V14.01,2013-11-21 08:56:00,
2013-11-21 03:58:00,34.0,16.4,30.53,NNE,22,2.2,2.2,48,0.00,,SKC,-99.99,VWS V14.01,2013-11-21 08:58:00,
2013-11-21 03:59:00,34.0,16.4,30.53,North,0,0.0,2.2,48,0.00,,SKC,-99.99,VWS V14.01,2013-11-21 08:59:00,
2013-11-21 04:00:00,34.0,16.4,30.53,NE,45,3.1,4.7,48,0.00,,SKC,-99.99,VWS V14.01,2013-11-21 09:00:00,
2013-11-21 04:02:00,34.0,16.4,30.53,NE,45,2.5,2.7,48,0.00,,SKC,-99.99,VWS V14.01,2013-11-21 09:02:00,
2013-11-21 04:04:00,34.0,16.4,30.53,East,90,0.9,2.7,48,0.00,,SKC,-99.99,VWS V14.01,2013-11-21 09:04:00,
2013-11-21 04:06:00,34.0,16.4,30.53,ENE,68,0.0,1.6,48,0.00,,SKC,-99.99,VWS V14.01,2013-11-21 09:06:00,
2013-11-21 04:08:00,34.2,16.5,30.53,ENE,68,1.3,2.2,48,0.00,,SKC,-99.99,VWS V14.01,2013-11-21 09:08:00,
2013-11-21 04:09:00,34.2,16.5,30.53,NE,45,2.5,2.9,48,0.00,,SKC,-99.99,VWS V14.01,2013-11-21 09:09:00,
2013-11-21 04:10:00,34.2,16.5,30.53,NE,45,0.0,2.9,48,0.00,,SKC,-99.99,VWS V14.01,2013-11-21 09:10:00,
2013-11-21 04:12:00,34.2,16.5,30.53,SE,135,0.0,0.0,48,0.00,,SKC,-99.99,VWS V14.01,2013-11-21 09:12:00,
2013-11-21 04:14:00,34.2,16.5,30.53,NE,45,2.2,3.4,48,0.00,,SKC,-99.99,VWS V14.01,2013-11-21 09:14:00,
2013-11-21 04:16:00,34.2,16.5,30.53,ENE,68,0.0,1.6,48,0.00,,SKC,-99.99,VWS V14.01,2013-11-21 09:16:00,
2013-11-21 04:18:00,34.2,16.5,30.53,East,90,0.0,2.0,48,0.00,,SKC,-99.99,VWS V14.01,2013-11-21 09:18:00,
2013-11-21 04:19:00,34.3,16.7,30.53,East,90,0.0,0.0,48,0.00,,SKC,-99.99,VWS V14.01,2013-11-21 09:19:00,
2013-11-21 04:20:00,34.3,16.7,30.53,ESE,112,0.0,1.6,48,0.00,,SKC,-99.99,VWS V14.01,2013-11-21 09:20:00,
2013-11-21 04:22:00,34.3,16.7,30.53,NNE,22,2.2,2.9,48,0.00,,SKC,-99.99,VWS V14.01,2013-11-21 09:22:00,
2013-11-21 04:24:00,34.3,16.7,30.53,ESE,112,2.0,2.5,48,0.00,,SKC,-99.99,VWS V14.01,2013-11-21 09:24:00,
2013-11-21 04:26:00,34.3,16.7,30.53,East,90,0.0,2.7,48,0.00,,SKC,-99.99,VWS V14.01,2013-11-21 09:26:00,
2013-11-21 04:28:00,34.3,16.7,30.53,SE,135,2.0,3.4,48,0.00,,SKC,-99.99,VWS V14.01,2013-11-21 09:28:00,
2013-11-21 04:29:00,34.3,16.7,30.53,NE,45,2.2,2.2,48,0.00,,SKC,-99.99,VWS V14.01,2013-11-21 09:29:00,
2013-11-21 04:30:00,34.3,16.7,30.53,NNE,22,0.9,2.2,48,0.00,,SKC,-99.99,VWS V14.01,2013-11-21 09:30:00,
2013-11-21 04:32:00,34.3,16.7,30.53,ESE,112,0.0,1.1,48,0.00,,SKC,-99.99,VWS V14.01,2013-11-21 09:32:00,
2013-11-21 04:34:00,34.3,16.7,30.53,ESE,112,0.0,4.5,48,0.00,,SKC,-99.99,VWS V14.01,2013-11-21 09:34:00,
2013-11-21 04:36:00,34.3,16.7,30.53,SE,135,1.1,2.5,48,0.00,,SKC,-99.99,VWS V14.01,2013-11-21 09:36:00,
2013-11-21 04:38:00,34.3,16.7,30.53,East,90,0.0,0.0,48,0.00,,SKC,-99.99,VWS V14.01,2013-11-21 09:38:00,
2013-11-21 04:39:00,34.3,16.7,30.53,East,90,0.0,0.0,48,0.00,,SKC,-99.99,VWS V14.01,2013-11-21 09:39:00,
2013-11-21 04:40:00,34.3,16.7,30.53,SE,135,0.0,0.0,48,0.00,,SKC,-99.99,VWS V14.01,2013-11-21 09:40:00,
2013-11-21 04:42:00,34.3,16.7,30.53,SE,135,0.0,0.0,48,0.00,,SKC,-99.99,VWS V14.01,2013-11-21 09:42:00,
2013-11-21 04:44:00,34.3,16.7,30.53,SE,135,0.0,0.0,48,0.00,,SKC,-99.99,VWS V14.01,2013-11-21 09:44:00,
2013-11-21 04:46:00,34.3,16.7,30.53,SE,135,0.0,0.0,48,0.00,,SKC,-99.99,VWS V14.01,2013-11-21 09:46:00,
2013-11-21 04:48:00,34.3,16.7,30.53,SE,135,0.0,0.0,48,0.00,,SKC,-99.99,VWS V14.01,2013-11-21 09:48:00,
2013-11-21 04:49:00,34.3,16.7,30.53,SE,135,0.0,0.0,48,0.00,,SKC,-99.99,VWS V14.01,2013-11-21 09:49:00,
2013-11-21 04:50:00,34.3,16.7,30.53,SE,135,0.0,0.0,48,0.00,,SKC,-99.99,VWS V14.01,2013-11-21 09:50:00,
2013-11-21 04:52:00,34.0,16.8,30.53,SE,135,0.0,0.0,49,0.00,,SKC,-99.99,VWS V14.01,2013-11-21 09:52:00,
2013-11-21 04:54:00,34.0,16.8,30.50,SE,135,0.0,0.0,49,0.00,,SKC,-99.99,VWS V14.01,2013-11-21 09:54:00,
2013-11-21 04:56:00,34.0,16.8,30.50,SE,135,0.0,0.0,49,0.00,,SKC,-99.99,VWS V14.01,2013-11-21 09:56:00,
2013-11-21 04:58:00,33.8,16.7,30.50,SE,135,0.0,0.0,49,0.00,,SKC,-99.99,VWS V14.01,2013-11-21 09:58:00,
2013-11-21 04:59:00,33.8,16.7,30.50,SE,135,0.0,0.0,49,0.00,,SKC,-99.99,VWS V14.01,2013-11-21 09:59:00,
2013-11-21 05:00:00,33.8,16.7,30.50,SE,135,0.0,0.0,49,0.00,,SKC,-99.99,VWS V14.01,2013-11-21 10:00:00,
2013-11-21 05:02:00,33.8,16.7,30.50,SE,135,0.0,0.0,49,0.00,,SKC,-99.99,VWS V14.01,2013-11-21 10:02:00,
2013-11-21 05:04:00,33.6,16.5,30.50,East,90,0.0,0.0,49,0.00,,SKC,-99.99,VWS V14.01,2013-11-21 10:04:00,
2013-11-21 05:06:00,33.6,16.5,30.50,East,90,0.0,0.0,49,0.00,,SKC,-99.99,VWS V14.01,2013-11-21 10:06:00,
2013-11-21 05:08:00,33.4,16.4,30.50,East,90,0.0,0.0,49,0.00,,SKC,-99.99,VWS V14.01,2013-11-21 10:08:00,
2013-11-21 05:09:00,33.4,16.8,30.50,ENE,68,0.0,0.0,50,0.00,,SKC,-99.99,VWS V14.01,2013-11-21 10:09:00,
2013-11-21 05:10:00,33.4,16.8,30.50,ENE,68,0.0,0.0,50,0.00,,SKC,-99.99,VWS V14.01,2013-11-21 10:10:00,
2013-11-21 05:12:00,33.4,16.8,30.50,ENE,68,0.0,0.0,50,0.00,,SKC,-99.99,VWS V14.01,2013-11-21 10:12:00,
2013-11-21 05:14:00,33.3,16.6,30.50,NE,45,0.0,0.0,50,0.00,,SKC,-99.99,VWS V14.01,2013-11-21 10:14:00,
2013-11-21 05:16:00,33.3,16.6,30.50,NNE,22,0.0,0.0,50,0.00,,SKC,-99.99,VWS V14.01,2013-11-21 10:16:00,
2013-11-21 05:18:00,33.3,16.6,30.50,NE,45,1.1,2.0,50,0.00,,SKC,-99.99,VWS V14.01,2013-11-21 10:18:00,
2013-11-21 05:19:00,33.1,16.5,30.50,North,0,0.0,2.0,50,0.00,,SKC,-99.99,VWS V14.01,2013-11-21 10:19:00,
2013-11-21 05:20:00,33.1,16.5,30.50,North,0,0.0,0.0,50,0.00,,SKC,-99.99,VWS V14.01,2013-11-21 10:20:00,
2013-11-21 05:22:00,33.1,16.5,30.50,North,0,0.0,0.0,50,0.00,,SKC,-99.99,VWS V14.01,2013-11-21 10:22:00,
2013-11-21 05:24:00,33.1,16.5,30.53,NNE,22,0.0,1.1,50,0.00,,SKC,-99.99,VWS V14.01,2013-11-21 10:24:00,
2013-11-21 05:26:00,32.9,16.3,30.53,NE,45,0.0,1.3,50,0.00,,SKC,-99.99,VWS V14.01,2013-11-21 10:26:00,
2013-11-21 05:28:00,32.9,16.3,30.53,NNE,22,0.0,0.0,50,0.00,,SKC,-99.99,VWS V14.01,2013-11-21 10:28:00,
2013-11-21 05:29:00,32.9,16.3,30.53,North,0,0.0,1.3,50,0.00,,SKC,-99.99,VWS V14.01,2013-11-21 10:29:00,
2013-11-21 05:30:00,32.9,16.3,30.53,North,0,0.0,1.3,50,0.00,,SKC,-99.99,VWS V14.01,2013-11-21 10:30:00,
2013-11-21 05:32:00,32.9,16.3,30.53,North,0,0.0,0.0,50,0.00,,SKC,-99.99,VWS V14.01,2013-11-21 10:32:00,
2013-11-21 05:34:00,32.7,16.1,30.53,North,0,0.0,0.0,50,0.00,,SKC,-99.99,VWS V14.01,2013-11-21 10:34:00,
2013-11-21 05:36:00,32.7,16.1,30.53,North,0,0.0,0.0,50,0.00,,SKC,-99.99,VWS V14.01,2013-11-21 10:36:00,
2013-11-21 05:38:00,32.7,16.1,30.53,NE,45,0.0,0.0,50,0.00,,SKC,-99.99,VWS V14.01,2013-11-21 10:38:00,
2013-11-21 05:39:00,32.7,16.1,30.53,North,0,2.9,2.9,50,0.00,,SKC,-99.99,VWS V14.01,2013-11-21 10:39:00,
2013-11-21 05:40:00,32.7,16.1,30.53,North,0,0.0,2.9,50,0.00,,SKC,-99.99,VWS V14.01,2013-11-21 10:40:00,
2013-11-21 05:42:00,32.7,16.1,30.53,NNE,22,0.0,0.0,50,0.00,,SKC,-99.99,VWS V14.01,2013-11-21 10:42:00,
2013-11-21 05:44:00,32.7,16.1,30.53,NE,45,0.0,0.0,50,0.00,,SKC,-99.99,VWS V14.01,2013-11-21 10:44:00,
2013-11-21 05:46:00,32.7,16.6,30.53,ENE,68,2.2,2.2,51,0.00,,SKC,-99.99,VWS V14.01,2013-11-21 10:46:00,
2013-11-21 05:48:00,32.5,16.4,30.53,NE,45,0.0,0.0,51,0.00,,SKC,-99.99,VWS V14.01,2013-11-21 10:48:00,
2013-11-21 05:49:00,32.5,16.4,30.53,NE,45,0.0,0.0,51,0.00,,SKC,-99.99,VWS V14.01,2013-11-21 10:49:00,
2013-11-21 05:50:00,32.5,16.4,30.53,NE,45,0.0,0.0,51,0.00,,SKC,-99.99,VWS V14.01,2013-11-21 10:50:00,
2013-11-21 05:52:00,32.5,16.4,30.53,NE,45,0.0,0.0,51,0.00,,SKC,-99.99,VWS V14.01,2013-11-21 10:52:00,
2013-11-21 05:54:00,32.5,16.4,30.53,NE,45,0.0,0.0,51,0.00,,SKC,-99.99,VWS V14.01,2013-11-21 10:54:00,
2013-11-21 05:56:00,32.5,16.4,30.53,NE,45,0.0,0.0,51,0.00,,SKC,-99.99,VWS V14.01,2013-11-21 10:56:00,
2013-11-21 05:58:00,32.5,16.4,30.53,NE,45,0.0,1.3,51,0.00,,SKC,-99.99,VWS V14.01,2013-11-21 10:58:00,
2013-11-21 05:59:00,32.7,16.6,30.53,NE,45,0.0,0.0,51,0.00,,SKC,-99.99,VWS V14.01,2013-11-21 10:59:00,
2013-11-21 06:00:00,32.7,16.6,30.53,NE,45,0.0,0.0,51,0.00,,SKC,-99.99,VWS V14.01,2013-11-21 11:00:00,
2013-11-21 06:02:00,32.7,16.6,30.53,NNE,22,0.0,0.0,51,0.00,,SKC,-99.99,VWS V14.01,2013-11-21 11:02:00,
2013-11-21 06:04:00,32.7,16.6,30.53,NE,45,0.0,0.0,51,0.00,,SKC,-99.99,VWS V14.01,2013-11-21 11:04:00,
2013-11-21 06:06:00,32.7,16.6,30.53,NE,45,0.0,0.0,51,0.00,,SKC,-99.99,VWS V14.01,2013-11-21 11:06:00,
2013-11-21 06:08:00,32.7,16.6,30.53,NNE,22,0.0,0.0,51,0.00,,SKC,-99.99,VWS V14.01,2013-11-21 11:08:00,
2013-11-21 06:09:00,32.7,16.6,30.53,NNE,22,0.0,0.0,51,0.00,,SKC,-99.99,VWS V14.01,2013-11-21 11:09:00,
2013-11-21 06:10:00,32.7,16.6,30.53,NE,45,0.0,0.0,51,0.00,,SKC,-99.99,VWS V14.01,2013-11-21 11:10:00,
2013-11-21 06:12:00,32.7,16.6,30.53,NE,45,0.0,0.0,51,0.00,,SKC,-99.99,VWS V14.01,2013-11-21 11:12:00,
2013-11-21 06:14:00,32.7,16.6,30.53,NE,45,0.0,0.0,51,0.00,,SKC,-99.99,VWS V14.01,2013-11-21 11:14:00,
2013-11-21 06:16:00,32.7,16.6,30.53,NE,45,0.0,0.0,51,0.00,,SKC,-99.99,VWS V14.01,2013-11-21 11:16:00,
2013-11-21 06:18:00,32.7,17.0,30.53,NE,45,0.0,0.0,52,0.00,,SKC,-99.99,VWS V14.01,2013-11-21 11:18:00,
2013-11-21 06:19:00,32.7,16.6,30.53,NE,45,0.0,0.0,51,0.00,,SKC,-99.99,VWS V14.01,2013-11-21 11:19:00,
2013-11-21 06:20:00,32.7,17.0,30.53,NE,45,0.0,0.0,52,0.00,,SKC,-99.99,VWS V14.01,2013-11-21 11:20:00,
2013-11-21 06:22:00,32.7,16.6,30.53,ESE,112,0.0,0.0,51,0.00,,SKC,-99.99,VWS V14.01,2013-11-21 11:22:00,
2013-11-21 06:24:00,32.9,17.2,30.53,NNE,22,0.0,0.0,52,0.00,,SKC,-99.99,VWS V14.01,2013-11-21 11:24:00,
2013-11-21 06:26:00,32.9,17.2,30.53,NE,45,0.0,0.0,52,0.00,,SKC,-99.99,VWS V14.01,2013-11-21 11:26:00,
2013-11-21 06:28:00,32.9,17.2,30.53,NE,45,0.0,0.0,52,0.00,,SKC,-99.99,VWS V14.01,2013-11-21 11:28:00,
2013-11-21 06:29:00,32.9,17.2,30.53,NNE,22,2.9,2.9,52,0.00,,SKC,-99.99,VWS V14.01,2013-11-21 11:29:00,
2013-11-21 06:30:00,32.9,17.2,30.53,NNE,22,2.9,2.9,52,0.00,,SKC,-99.99,VWS V14.01,2013-11-21 11:30:00,
2013-11-21 06:32:00,33.1,17.4,30.53,ENE,68,0.0,0.9,52,0.00,,SKC,-99.99,VWS V14.01,2013-11-21 11:32:00,
2013-11-21 06:34:00,33.1,17.4,30.53,ENE,68,0.0,0.0,52,0.00,,SKC,-99.99,VWS V14.01,2013-11-21 11:34:00,
2013-11-21 06:36:00,33.1,17.4,30.53,East,90,0.0,0.0,52,0.00,,SKC,-99.99,VWS V14.01,2013-11-21 11:36:00,
2013-11-21 06:38:00,33.3,17.5,30.53,NNE,22,0.0,2.0,52,0.00,,SKC,-99.99,VWS V14.01,2013-11-21 11:38:00,
2013-11-21 06:39:00,33.3,17.5,30.53,NE,45,1.1,1.1,52,0.00,,SKC,-99.99,VWS V14.01,2013-11-21 11:39:00,
2013-11-21 06:40:00,33.3,17.5,30.53,NE,45,1.1,1.1,52,0.00,,SKC,-99.99,VWS V14.01,2013-11-21 11:40:00,
2013-11-21 06:42:00,33.3,17.5,30.53,North,0,0.0,1.3,52,0.00,,SKC,-99.99,VWS V14.01,2013-11-21 11:42:00,
2013-11-21 06:44:00,33.3,17.5,30.53,NE,45,0.0,0.0,52,0.00,,SKC,-99.99,VWS V14.01,2013-11-21 11:44:00,
2013-11-21 06:46:00,33.3,17.5,30.53,NE,45,0.0,0.0,52,0.00,,SKC,-99.99,VWS V14.01,2013-11-21 11:46:00,
2013-11-21 06:48:00,33.3,17.5,30.53,NE,45,0.0,0.0,52,0.00,,SKC,-99.99,VWS V14.01,2013-11-21 11:48:00,
2013-11-21 06:49:00,33.1,17.4,30.53,NE,45,2.0,2.2,52,0.00,,SKC,-99.99,VWS V14.01,2013-11-21 11:49:00,
2013-11-21 06:50:00,33.1,17.4,30.53,NE,45,2.0,2.2,52,0.00,,SKC,-99.99,VWS V14.01,2013-11-21 11:50:00,
2013-11-21 06:52:00,33.1,17.4,30.53,ENE,68,2.0,2.0,52,0.00,,SKC,-99.99,VWS V14.01,2013-11-21 11:52:00,
2013-11-21 06:54:00,33.1,17.4,30.53,NE,45,0.0,2.7,52,0.00,,SKC,-99.99,VWS V14.01,2013-11-21 11:54:00,
2013-11-21 06:55:00,33.1,17.4,30.53,East,90,1.6,2.7,52,0.00,,SKC,-99.99,VWS V14.01,2013-11-21 11:55:00,
2013-11-21 06:56:00,33.1,17.8,30.53,ENE,68,2.7,2.7,53,0.00,,SKC,-99.99,VWS V14.01,2013-11-21 11:56:00,
2013-11-21 06:58:00,33.3,18.0,30.53,ENE,68,3.4,3.4,53,0.00,,SKC,-99.99,VWS V14.01,2013-11-21 11:58:00,
2013-11-21 06:59:00,33.3,18.4,30.53,East,90,3.6,3.6,54,0.00,,SKC,-99.99,VWS V14.01,2013-11-21 11:59:00,
2013-11-21 07:00:00,33.3,18.4,30.53,East,90,3.6,3.6,54,0.00,,SKC,-99.99,VWS V14.01,2013-11-21 12:00:00,
2013-11-21 07:02:00,33.3,18.4,30.53,ENE,68,2.5,3.6,54,0.00,,SKC,-99.99,VWS V14.01,2013-11-21 12:02:00,
2013-11-21 07:04:00,33.4,19.0,30.53,NE,45,0.0,4.0,55,0.00,,SKC,-99.99,VWS V14.01,2013-11-21 12:04:00,
2013-11-21 07:05:00,33.6,19.2,30.53,NNE,22,1.6,2.5,55,0.00,,SKC,-99.99,VWS V14.01,2013-11-21 12:05:00,
2013-11-21 07:06:00,33.6,19.2,30.53,NE,45,0.0,2.2,55,0.00,,SKC,-99.99,VWS V14.01,2013-11-21 12:06:00,
2013-11-21 07:08:00,33.6,19.6,30.53,ENE,68,1.6,2.9,56,0.00,,SKC,-99.99,VWS V14.01,2013-11-21 12:08:00,
2013-11-21 07:10:00,33.6,20.0,30.53,NNE,22,0.0,1.6,57,0.00,,SKC,-99.99,VWS V14.01,2013-11-21 12:10:00,
2013-11-21 07:12:00,33.6,20.0,30.53,NE,45,0.9,2.0,57,0.00,,SKC,-99.99,VWS V14.01,2013-11-21 12:12:00,
2013-11-21 07:14:00,33.8,20.2,30.53,NNE,22,2.9,3.4,57,0.00,,SKC,-99.99,VWS V14.01,2013-11-21 12:14:00,
2013-11-21 07:15:00,33.8,20.6,30.53,NNE,22,2.7,3.4,58,0.00,,SKC,-99.99,VWS V14.01,2013-11-21 12:15:00,
2013-11-21 07:16:00,33.8,20.6,30.53,NE,45,0.9,2.7,58,0.00,,SKC,-99.99,VWS V14.01,2013-11-21 12:16:00,
2013-11-21 07:18:00,33.8,20.6,30.53,NE,45,1.6,2.2,58,0.00,,SKC,-99.99,VWS V14.01,2013-11-21 12:18:00,
2013-11-21 07:20:00,33.8,21.0,30.53,North,0,0.9,2.7,59,0.00,,SKC,-99.99,VWS V14.01,2013-11-21 12:20:00,
2013-11-21 07:22:00,34.0,21.2,30.53,East,90,0.0,1.6,59,0.00,,SKC,-99.99,VWS V14.01,2013-11-21 12:22:00,
2013-11-21 07:24:00,34.0,21.2,30.53,NNW,338,1.3,2.2,59,0.00,,SKC,-99.99,VWS V14.01,2013-11-21 12:24:00,
2013-11-21 07:25:00,34.0,21.2,30.53,North,0,0.0,2.2,59,0.00,,SKC,-99.99,VWS V14.01,2013-11-21 12:25:00,
2013-11-21 07:26:00,34.0,21.2,30.53,North,0,0.0,0.0,59,0.00,,SKC,-99.99,VWS V14.01,2013-11-21 12:26:00,
2013-11-21 07:28:00,34.2,21.7,30.53,NE,45,0.0,1.6,60,0.00,,SKC,-99.99,VWS V14.01,2013-11-21 12:28:00,
2013-11-21 07:30:00,34.2,22.1,30.53,North,0,1.1,2.0,61,0.00,,SKC,-99.99,VWS V14.01,2013-11-21 12:30:00,
2013-11-21 07:32:00,34.2,21.7,30.53,NE,45,0.0,2.2,60,0.00,,SKC,-99.99,VWS V14.01,2013-11-21 12:32:00,
2013-11-21 07:34:00,34.3,22.3,30.53,ENE,68,2.5,3.4,61,0.00,,SKC,-99.99,VWS V14.01,2013-11-21 12:34:00,
2013-11-21 07:35:00,34.3,22.3,30.53,NNE,22,1.1,2.5,61,0.00,,SKC,-99.99,VWS V14.01,2013-11-21 12:35:00,
2013-11-21 07:36:00,34.3,22.3,30.53,NE,45,2.2,2.2,61,0.00,,SKC,-99.99,VWS V14.01,2013-11-21 12:36:00,
2013-11-21 07:38:00,34.3,22.3,30.53,NE,45,0.0,0.0,61,0.00,,SKC,-99.99,VWS V14.01,2013-11-21 12:38:00,
2013-11-21 07:40:00,34.5,22.9,30.53,NNE,22,1.3,1.6,62,0.00,,SKC,-99.99,VWS V14.01,2013-11-21 12:40:00,
2013-11-21 07:42:00,34.5,22.9,30.53,NNW,338,0.0,2.2,62,0.00,,SKC,-99.99,VWS V14.01,2013-11-21 12:42:00,
2013-11-21 07:44:00,34.7,23.4,30.53,North,0,0.0,3.1,63,0.00,,SKC,-99.99,VWS V14.01,2013-11-21 12:44:00,
2013-11-21 07:45:00,34.7,23.4,30.53,North,0,0.0,3.1,63,0.00,,SKC,-99.99,VWS V14.01,2013-11-21 12:45:00,
2013-11-21 07:46:00,34.9,23.6,30.53,North,0,0.0,1.1,63,0.00,,SKC,-99.99,VWS V14.01,2013-11-21 12:46:00,
2013-11-21 07:48:00,34.9,23.6,30.53,North,0,2.7,3.4,63,0.00,,SKC,-99.99,VWS V14.01,2013-11-21 12:48:00,
2013-11-21 07:50:00,35.1,24.1,30.53,NE,45,2.5,2.9,64,0.00,,SKC,-99.99,VWS V14.01,2013-11-21 12:50:00,
2013-11-21 07:52:00,35.1,24.1,30.53,NE,45,0.0,2.2,64,0.00,,SKC,-99.99,VWS V14.01,2013-11-21 12:52:00,
2013-11-21 07:54:00,35.2,24.3,30.53,NE,45,2.9,2.9,64,0.00,,SKC,-99.99,VWS V14.01,2013-11-21 12:54:00,
2013-11-21 07:55:00,35.2,24.3,30.53,North,0,2.5,2.9,64,0.00,,SKC,-99.99,VWS V14.01,2013-11-21 12:55:00,
2013-11-21 07:56:00,35.2,24.3,30.53,NNE,22,1.3,2.5,64,0.00,,SKC,-99.99,VWS V14.01,2013-11-21 12:56:00,
2013-11-21 07:58:00,35.4,24.8,30.53,NNW,338,0.0,0.0,65,0.00,,SKC,-99.99,VWS V14.01,2013-11-21 12:58:00,
2013-11-21 08:00:00,35.4,24.8,30.53,NNE,22,0.9,2.9,65,0.00,,SKC,-99.99,VWS V14.01,2013-11-21 13:00:00,
2013-11-21 08:02:00,35.4,24.8,30.53,North,0,0.0,0.0,65,0.00,,SKC,-99.99,VWS V14.01,2013-11-21 13:02:00,
2013-11-21 08:04:00,35.6,25.0,30.53,NNW,338,0.0,2.0,65,0.00,,SKC,-99.99,VWS V14.01,2013-11-21 13:04:00,
2013-11-21 08:05:00,35.6,25.0,30.53,NNE,22,0.0,1.1,65,0.00,,SKC,-99.99,VWS V14.01,2013-11-21 13:05:00,
2013-11-21 08:06:00,35.6,25.0,30.53,NE,45,0.0,0.0,65,0.00,,SKC,-99.99,VWS V14.01,2013-11-21 13:06:00,
2013-11-21 08:08:00,35.8,25.2,30.53,NE,45,2.0,2.0,65,0.00,,SKC,-99.99,VWS V14.01,2013-11-21 13:08:00,
2013-11-21 08:10:00,36.0,25.4,30.53,NNE,22,0.0,2.5,65,0.00,,SKC,-99.99,VWS V14.01,2013-11-21 13:10:00,
2013-11-21 08:12:00,36.1,25.5,30.53,North,0,2.0,2.0,65,0.00,,SKC,-99.99,VWS V14.01,2013-11-21 13:12:00,
2013-11-21 08:14:00,36.1,25.9,30.53,NNW,338,0.0,0.0,66,0.00,,SKC,-99.99,VWS V14.01,2013-11-21 13:14:00,
2013-11-21 08:15:00,36.1,25.9,30.53,North,0,2.5,3.4,66,0.00,,SKC,-99.99,VWS V14.01,2013-11-21 13:15:00,
2013-11-21 08:16:00,36.3,26.1,30.53,North,0,2.0,3.4,66,0.00,,SKC,-99.99,VWS V14.01,2013-11-21 13:16:00,
2013-11-21 08:18:00,36.5,26.2,30.53,North,0,2.7,3.6,66,0.00,,SKC,-99.99,VWS V14.01,2013-11-21 13:18:00,
2013-11-21 08:20:00,36.7,26.4,30.53,North,0,2.9,4.9,66,0.00,,SKC,-99.99,VWS V14.01,2013-11-21 13:20:00,
2013-11-21 08:22:00,36.9,26.6,30.53,NNW,338,4.7,6.0,66,0.00,,SKC,-99.99,VWS V14.01,2013-11-21 13:22:00,
2013-11-21 08:24:00,37.0,27.1,30.53,North,0,2.5,5.8,67,0.00,,SKC,-99.99,VWS V14.01,2013-11-21 13:24:00,
2013-11-21 08:25:00,37.2,27.6,30.53,NNE,22,5.8,5.8,68,0.00,,SKC,-99.99,VWS V14.01,2013-11-21 13:25:00,
2013-11-21 08:26:00,37.2,27.6,30.53,NNE,22,3.1,5.8,68,0.00,,SKC,-99.99,VWS V14.01,2013-11-21 13:26:00,
2013-11-21 08:28:00,37.4,27.5,30.53,North,0,0.0,4.7,67,0.00,,SKC,-99.99,VWS V14.01,2013-11-21 13:28:00,
2013-11-21 08:30:00,37.6,27.6,30.53,NE,45,1.1,4.0,67,0.00,,SKC,-99.99,VWS V14.01,2013-11-21 13:30:00,
2013-11-21 08:32:00,37.8,27.4,30.53,NNE,22,2.0,2.0,66,0.00,,SKC,-99.99,VWS V14.01,2013-11-21 13:32:00,
2013-11-21 08:34:00,37.9,27.6,30.53,NE,45,0.9,3.6,66,0.00,,SKC,-99.99,VWS V14.01,2013-11-21 13:34:00,
2013-11-21 08:35:00,37.9,27.6,30.53,North,0,2.5,2.7,66,0.00,,SKC,-99.99,VWS V14.01,2013-11-21 13:35:00,
2013-11-21 08:36:00,38.1,27.8,30.53,NNE,22,3.8,4.0,66,0.00,,SKC,-99.99,VWS V14.01,2013-11-21 13:36:00,
2013-11-21 08:38:00,38.1,27.8,30.53,ENE,68,4.3,5.8,66,0.00,,SKC,-99.99,VWS V14.01,2013-11-21 13:38:00,
2013-11-21 08:40:00,38.5,28.5,30.53,North,0,4.0,4.3,67,0.00,,SKC,-99.99,VWS V14.01,2013-11-21 13:40:00,
2013-11-21 08:42:00,38.5,28.5,30.53,North,0,6.3,7.6,67,0.00,,SKC,-99.99,VWS V14.01,2013-11-21 13:42:00,
2013-11-21 08:44:00,38.7,28.7,30.53,North,0,3.4,6.0,67,0.00,,SKC,-99.99,VWS V14.01,2013-11-21 13:44:00,
2013-11-21 08:45:00,38.7,28.7,30.53,NNE,22,3.1,4.0,67,0.00,,SKC,-99.99,VWS V14.01,2013-11-21 13:45:00,
2013-11-21 08:46:00,38.8,28.8,30.53,East,90,4.9,4.9,67,0.00,,SKC,-99.99,VWS V14.01,2013-11-21 13:46:00,
2013-11-21 08:48:00,38.8,28.5,30.53,North,0,3.6,3.6,66,0.00,,SKC,-99.99,VWS V14.01,2013-11-21 13:48:00,
2013-11-21 08:50:00,39.0,28.6,30.53,North,0,3.1,5.4,66,0.00,,SKC,-99.99,VWS V14.01,2013-11-21 13:50:00,
2013-11-21 08:52:00,39.2,28.4,30.53,North,0,3.4,5.4,65,0.00,,SKC,-99.99,VWS V14.01,2013-11-21 13:52:00,
2013-11-21 08:54:00,39.4,28.6,30.53,NE,45,3.8,6.5,65,0.00,,SKC,-99.99,VWS V14.01,2013-11-21 13:54:00,
2013-11-21 08:55:00,39.4,28.6,30.53,NE,45,3.6,5.4,65,0.00,,SKC,-99.99,VWS V14.01,2013-11-21 13:55:00,
2013-11-21 08:56:00,39.4,28.6,30.53,NE,45,2.7,3.6,65,0.00,,SKC,-99.99,VWS V14.01,2013-11-21 13:56:00,
2013-11-21 08:58:00,39.6,28.8,30.53,North,0,0.0,3.4,65,0.00,,SKC,-99.99,VWS V14.01,2013-11-21 13:58:00,
2013-11-21 09:00:00,39.7,29.0,30.53,East,90,3.8,4.9,65,0.00,,SKC,-99.99,VWS V14.01,2013-11-21 14:00:00,
2013-11-21 09:02:00,39.7,29.0,30.53,NE,45,3.8,3.8,65,0.00,,SKC,-99.99,VWS V14.01,2013-11-21 14:02:00,
2013-11-21 09:04:00,39.9,29.1,30.53,North,0,4.7,5.4,65,0.00,,SKC,-99.99,VWS V14.01,2013-11-21 14:04:00,
2013-11-21 09:05:00,39.9,29.1,30.53,NE,45,3.6,3.6,65,0.00,,SKC,-99.99,VWS V14.01,2013-11-21 14:05:00,
2013-11-21 09:06:00,39.9,29.1,30.53,North,0,2.7,3.6,65,0.00,,SKC,-99.99,VWS V14.01,2013-11-21 14:06:00,
2013-11-21 09:08:00,40.1,29.3,30.53,NNE,22,5.8,5.8,65,0.00,,SKC,-99.99,VWS V14.01,2013-11-21 14:08:00,
2013-11-21 09:10:00,40.3,29.1,30.53,North,0,2.7,4.9,64,0.00,,SKC,-99.99,VWS V14.01,2013-11-21 14:10:00,
2013-11-21 09:12:00,40.3,29.1,30.53,North,0,1.1,3.6,64,0.00,,SKC,-99.99,VWS V14.01,2013-11-21 14:12:00,
2013-11-21 09:14:00,40.5,28.9,30.53,North,0,2.0,3.4,63,0.00,,SKC,-99.99,VWS V14.01,2013-11-21 14:14:00,
2013-11-21 09:15:00,40.5,28.9,30.53,North,0,4.0,5.4,63,0.00,,SKC,-99.99,VWS V14.01,2013-11-21 14:15:00,
2013-11-21 09:16:00,40.5,28.9,30.53,North,0,3.4,5.4,63,0.00,,SKC,-99.99,VWS V14.01,2013-11-21 14:16:00,
2013-11-21 09:18:00,40.6,29.0,30.53,NE,45,3.6,6.3,63,0.00,,SKC,-99.99,VWS V14.01,2013-11-21 14:18:00,
2013-11-21 09:20:00,40.6,29.0,30.53,NE,45,3.1,5.6,63,0.00,,SKC,-99.99,VWS V14.01,2013-11-21 14:20:00,
2013-11-21 09:22:00,40.8,29.2,30.53,North,0,5.6,5.6,63,0.00,,SKC,-99.99,VWS V14.01,2013-11-21 14:22:00,
2013-11-21 09:24:00,40.8,28.8,30.53,NNE,22,6.0,6.0,62,0.00,,SKC,-99.99,VWS V14.01,2013-11-21 14:24:00,
2013-11-21 09:25:00,41.0,29.0,30.53,North,0,4.0,6.0,62,0.00,,SKC,-99.99,VWS V14.01,2013-11-21 14:25:00,
2013-11-21 09:26:00,41.0,29.0,30.53,North,0,3.1,5.6,62,0.00,,SKC,-99.99,VWS V14.01,2013-11-21 14:26:00,
2013-11-21 09:28:00,41.0,29.0,30.53,NE,45,3.8,6.3,62,0.00,,SKC,-99.99,VWS V14.01,2013-11-21 14:28:00,
2013-11-21 09:30:00,41.2,28.8,30.53,North,0,7.4,7.4,61,0.00,,SKC,-99.99,VWS V14.01,2013-11-21 14:30:00,
2013-11-21 09:32:00,41.2,29.2,30.53,NNE,22,2.5,4.7,62,0.00,,SKC,-99.99,VWS V14.01,2013-11-21 14:32:00,
2013-11-21 09:34:00,41.4,28.9,30.53,NNW,338,5.4,6.0,61,0.00,,SKC,-99.99,VWS V14.01,2013-11-21 14:34:00,
2013-11-21 09:35:00,41.5,29.1,30.53,NNW,338,4.3,6.3,61,0.00,,SKC,-99.99,VWS V14.01,2013-11-21 14:35:00,
2013-11-21 09:36:00,41.5,29.1,30.53,NNE,22,6.0,6.0,61,0.00,,SKC,-99.99,VWS V14.01,2013-11-21 14:36:00,
2013-11-21 09:38:00,41.5,29.1,30.53,North,0,3.4,6.3,61,0.00,,SKC,-99.99,VWS V14.01,2013-11-21 14:38:00,
2013-11-21 09:40:00,41.7,29.3,30.53,North,0,1.6,4.0,61,0.00,,SKC,-99.99,VWS V14.01,2013-11-21 14:40:00,
2013-11-21 09:42:00,41.7,29.3,30.53,North,0,4.7,4.9,61,0.00,,SKC,-99.99,VWS V14.01,2013-11-21 14:42:00,
2013-11-21 09:44:00,41.9,29.5,30.53,North,0,4.3,4.3,61,0.00,,SKC,-99.99,VWS V14.01,2013-11-21 14:44:00,
2013-11-21 09:45:00,41.9,29.5,30.53,North,0,1.6,4.3,61,0.00,,SKC,-99.99,VWS V14.01,2013-11-21 14:45:00,
2013-11-21 09:46:00,41.9,29.5,30.53,North,0,2.0,2.9,61,0.00,,SKC,-99.99,VWS V14.01,2013-11-21 14:46:00,
2013-11-21 09:48:00,42.1,29.2,30.53,NE,45,4.7,5.6,60,0.00,,SKC,-99.99,VWS V14.01,2013-11-21 14:48:00,
2013-11-21 09:50:00,42.3,29.4,30.53,North,0,3.1,6.5,60,0.00,,SKC,-99.99,VWS V14.01,2013-11-21 14:50:00,
2013-11-21 09:52:00,42.4,29.5,30.53,North,0,7.4,7.4,60,0.00,,SKC,-99.99,VWS V14.01,2013-11-21 14:52:00,
2013-11-21 09:54:00,42.4,29.5,30.53,NE,45,4.9,5.4,60,0.00,,SKC,-99.99,VWS V14.01,2013-11-21 14:54:00,
2013-11-21 09:55:00,42.6,29.7,30.53,NNE,22,3.6,4.9,60,0.00,,SKC,-99.99,VWS V14.01,2013-11-21 14:55:00,
2013-11-21 09:56:00,42.6,29.7,30.53,NE,45,2.7,3.8,60,0.00,,SKC,-99.99,VWS V14.01,2013-11-21 14:56:00,
2013-11-21 09:58:00,42.6,29.7,30.53,NNE,22,3.6,5.4,60,0.00,,SKC,-99.99,VWS V14.01,2013-11-21 14:58:00,
2013-11-21 10:00:00,42.6,29.3,30.53,NE,45,0.0,2.2,59,0.00,,SKC,-99.99,VWS V14.01,2013-11-21 15:00:00,
2013-11-21 10:02:00,42.6,29.3,30.53,NE,45,3.1,3.1,59,0.00,,SKC,-99.99,VWS V14.01,2013-11-21 15:02:00,
2013-11-21 10:04:00,42.6,29.3,30.53,NE,45,4.3,5.4,59,0.00,,SKC,-99.99,VWS V14.01,2013-11-21 15:04:00,
2013-11-21 10:05:00,42.6,29.3,30.53,SE,135,3.4,3.4,59,0.00,,SKC,-99.99,VWS V14.01,2013-11-21 15:05:00,
2013-11-21 10:06:00,42.6,29.3,30.53,SE,135,4.0,4.0,59,0.00,,SKC,-99.99,VWS V14.01,2013-11-21 15:06:00,
2013-11-21 10:08:00,42.8,29.5,30.53,NW,315,3.1,3.1,59,0.00,,SKC,-99.99,VWS V14.01,2013-11-21 15:08:00,
2013-11-21 10:10:00,43.0,29.2,30.53,NNE,22,3.8,3.8,58,0.00,,SKC,-99.99,VWS V14.01,2013-11-21 15:10:00,
2013-11-21 10:12:00,43.0,29.2,30.53,NE,45,3.8,4.3,58,0.00,,SKC,-99.99,VWS V14.01,2013-11-21 15:12:00,
2013-11-21 10:14:00,43.0,29.6,30.53,NE,45,3.6,3.6,59,0.00,,SKC,-99.99,VWS V14.01,2013-11-21 15:14:00,
2013-11-21 10:15:00,43.0,29.2,30.53,WNW,292,3.6,4.0,58,0.00,,SKC,-99.99,VWS V14.01,2013-11-21 15:15:00,
2013-11-21 10:16:00,43.0,29.2,30.53,NNW,338,3.8,4.0,58,0.00,,SKC,-99.99,VWS V14.01,2013-11-21 15:16:00,
2013-11-21 10:18:00,43.0,29.2,30.53,North,0,3.4,4.0,58,0.00,,SKC,-99.99,VWS V14.01,2013-11-21 15:18:00,
2013-11-21 10:20:00,43.0,29.2,30.53,NE,45,1.6,2.5,58,0.00,,SKC,-99.99,VWS V14.01,2013-11-21 15:20:00,
2013-11-21 10:22:00,43.0,29.2,30.53,North,0,3.1,3.1,58,0.00,,SKC,-99.99,VWS V14.01,2013-11-21 15:22:00,
2013-11-21 10:24:00,43.2,29.4,30.53,East,90,3.6,4.3,58,0.00,,SKC,-99.99,VWS V14.01,2013-11-21 15:24:00,
2013-11-21 10:25:00,43.2,29.4,30.53,North,0,0.0,2.9,58,0.00,,SKC,-99.99,VWS V14.01,2013-11-21 15:25:00,
2013-11-21 10:26:00,43.2,29.4,30.53,NNW,338,4.0,4.0,58,0.00,,SKC,-99.99,VWS V14.01,2013-11-21 15:26:00,
2013-11-21 10:28:00,43.3,29.6,30.53,NE,45,5.8,5.8,58,0.00,,SKC,-99.99,VWS V14.01,2013-11-21 15:28:00,
2013-11-21 10:30:00,43.5,29.7,30.53,NE,45,3.4,4.3,58,0.00,,SKC,-99.99,VWS V14.01,2013-11-21 15:30:00,
2013-11-21 10:32:00,43.5,29.7,30.53,North,0,2.7,3.1,58,0.00,,SKC,-99.99,VWS V14.01,2013-11-21 15:32:00,
2013-11-21 10:34:00,43.5,29.7,30.53,North,0,6.0,6.0,58,0.00,,SKC,-99.99,VWS V14.01,2013-11-21 15:34:00,
2013-11-21 10:35:00,43.5,29.7,30.53,North,0,2.5,4.0,58,0.00,,SKC,-99.99,VWS V14.01,2013-11-21 15:35:00,
2013-11-21 10:36:00,43.5,29.7,30.53,North,0,3.4,4.0,58,0.00,,SKC,-99.99,VWS V14.01,2013-11-21 15:36:00,
2013-11-21 10:38:00,43.5,29.7,30.50,North,0,4.0,5.4,58,0.00,,SKC,-99.99,VWS V14.01,2013-11-21 15:38:00,
2013-11-21 10:40:00,43.5,29.3,30.50,NNE,22,3.8,6.3,57,0.00,,SKC,-99.99,VWS V14.01,2013-11-21 15:40:00,
2013-11-21 10:42:00,43.5,29.3,30.50,NNE,22,3.4,3.8,57,0.00,,SKC,-99.99,VWS V14.01,2013-11-21 15:42:00,
2013-11-21 10:44:00,43.7,29.9,30.50,North,0,2.7,4.5,58,0.00,,SKC,-99.99,VWS V14.01,2013-11-21 15:44:00,
2013-11-21 10:45:00,43.7,29.5,30.50,North,0,3.4,5.6,57,0.00,,SKC,-99.99,VWS V14.01,2013-11-21 15:45:00,
2013-11-21 10:46:00,43.9,29.6,30.50,NW,315,2.5,5.6,57,0.00,,SKC,-99.99,VWS V14.01,2013-11-21 15:46:00,
2013-11-21 10:48:00,44.1,29.8,30.50,North,0,3.8,6.0,57,0.00,,SKC,-99.99,VWS V14.01,2013-11-21 15:48:00,
2013-11-21 10:50:00,44.2,30.0,30.50,North,0,2.0,3.4,57,0.00,,SKC,-99.99,VWS V14.01,2013-11-21 15:50:00,
2013-11-21 10:52:00,44.4,30.2,30.50,NE,45,3.8,3.8,57,0.00,,SKC,-99.99,VWS V14.01,2013-11-21 15:52:00,
2013-11-21 10:54:00,44.8,30.5,30.50,NNW,338,3.8,4.9,57,0.00,,SKC,-99.99,VWS V14.01,2013-11-21 15:54:00,
2013-11-21 10:55:00,45.0,30.7,30.50,North,0,3.6,6.3,57,0.00,,SKC,-99.99,VWS V14.01,2013-11-21 15:55:00,
2013-11-21 10:56:00,45.0,30.7,30.50,North,0,5.6,6.3,57,0.00,,SKC,-99.99,VWS V14.01,2013-11-21 15:56:00,
2013-11-21 10:58:00,45.1,30.4,30.50,NNW,338,3.6,6.5,56,0.00,,SKC,-99.99,VWS V14.01,2013-11-21 15:58:00,
2013-11-21 11:00:00,45.1,30.4,30.50,NW,315,3.6,4.3,56,0.00,,SKC,-99.99,VWS V14.01,2013-11-21 16:00:00,
2013-11-21 11:02:00,45.3,30.6,30.50,NW,315,5.8,5.8,56,0.00,,SKC,-99.99,VWS V14.01,2013-11-21 16:02:00,
2013-11-21 11:04:00,45.3,30.6,30.50,North,0,4.3,4.3,56,0.00,,SKC,-99.99,VWS V14.01,2013-11-21 16:04:00,
2013-11-21 11:05:00,45.3,30.6,30.50,NW,315,1.6,4.0,56,0.00,,SKC,-99.99,VWS V14.01,2013-11-21 16:05:00,
2013-11-21 11:06:00,45.3,30.6,30.50,North,0,2.5,4.0,56,0.00,,SKC,-99.99,VWS V14.01,2013-11-21 16:06:00,
2013-11-21 11:08:00,45.5,30.7,30.50,North,0,4.3,4.7,56,0.00,,SKC,-99.99,VWS V14.01,2013-11-21 16:08:00,
2013-11-21 11:10:00,45.7,30.5,30.50,NNE,22,3.8,3.8,55,0.00,,SKC,-99.99,VWS V14.01,2013-11-21 16:10:00,
2013-11-21 11:12:00,45.7,30.5,30.50,North,0,3.4,5.4,55,0.00,,SKC,-99.99,VWS V14.01,2013-11-21 16:12:00,
2013-11-21 11:14:00,45.9,30.6,30.50,NNE,22,3.8,6.0,55,0.00,,SKC,-99.99,VWS V14.01,2013-11-21 16:14:00,
2013-11-21 11:15:00,46.0,30.8,30.50,North,0,2.5,6.3,55,0.00,,SKC,-99.99,VWS V14.01,2013-11-21 16:15:00,
2013-11-21 11:16:00,46.0,31.2,30.50,North,0,2.5,6.3,56,0.00,,SKC,-99.99,VWS V14.01,2013-11-21 16:16:00,
2013-11-21 11:18:00,46.2,31.4,30.50,SSE,158,2.5,2.5,56,0.00,,SKC,-99.99,VWS V14.01,2013-11-21 16:18:00,
2013-11-21 11:20:00,46.6,31.3,30.50,East,90,0.0,3.1,55,0.00,,SKC,-99.99,VWS V14.01,2013-11-21 16:20:00,
2013-11-21 11:22:00,46.8,31.5,30.50,ESE,112,0.9,0.9,55,0.00,,SKC,-99.99,VWS V14.01,2013-11-21 16:22:00,
2013-11-21 11:24:00,46.8,31.5,30.50,NE,45,2.9,2.9,55,0.00,,SKC,-99.99,VWS V14.01,2013-11-21 16:24:00,
2013-11-21 11:25:00,46.9,31.6,30.50,SE,135,3.8,3.8,55,0.00,,SKC,-99.99,VWS V14.01,2013-11-21 16:25:00,
2013-11-21 11:26:00,46.9,31.6,30.50,SE,135,1.1,3.8,55,0.00,,SKC,-99.99,VWS V14.01,2013-11-21 16:26:00,
2013-11-21 11:28:00,46.9,31.2,30.50,SE,135,3.4,3.4,54,0.00,,SKC,-99.99,VWS V14.01,2013-11-21 16:28:00,
2013-11-21 11:30:00,47.1,31.4,30.50,SE,135,3.4,4.0,54,0.00,,SKC,-99.99,VWS V14.01,2013-11-21 16:30:00,
2013-11-21 11:32:00,47.1,31.3,30.50,SE,135,3.4,4.7,54,0.00,,SKC,-99.99,VWS V14.01,2013-11-21 16:32:00,
2013-11-21 11:34:00,47.1,31.3,30.50,SSE,158,3.6,4.0,54,0.00,,SKC,-99.99,VWS V14.01,2013-11-21 16:34:00,
2013-11-21 11:35:00,47.1,31.4,30.50,SE,135,0.0,3.4,54,0.00,,SKC,-99.99,VWS V14.01,2013-11-21 16:35:00,
2013-11-21 11:36:00,47.1,31.3,30.50,East,90,0.0,2.2,54,0.00,,SKC,-99.99,VWS V14.01,2013-11-21 16:36:00,
2013-11-21 11:38:00,47.3,31.5,30.50,NNW,338,0.0,2.0,54,0.00,,SKC,-99.99,VWS V14.01,2013-11-21 16:38:00,
2013-11-21 11:40:00,47.3,31.5,30.50,East,90,2.0,2.9,54,0.00,,SKC,-99.99,VWS V14.01,2013-11-21 16:40:00,
2013-11-21 11:42:00,47.3,31.5,30.50,ENE,68,0.0,2.9,54,0.00,,SKC,-99.99,VWS V14.01,2013-11-21 16:42:00,
2013-11-21 11:44:00,47.3,31.5,30.50,North,0,1.6,2.7,54,0.00,,SKC,-99.99,VWS V14.01,2013-11-21 16:44:00,
2013-11-21 11:45:00,47.3,31.0,30.50,North,0,2.5,5.8,53,0.00,,SKC,-99.99,VWS V14.01,2013-11-21 16:45:00,
2013-11-21 11:46:00,47.3,31.0,30.50,North,0,3.8,5.8,53,0.00,,SKC,-99.99,VWS V14.01,2013-11-21 16:46:00,
2013-11-21 11:48:00,47.3,31.0,30.50,NE,45,2.5,4.0,53,0.00,,SKC,-99.99,VWS V14.01,2013-11-21 16:48:00,
2013-11-21 11:50:00,47.1,30.9,30.50,NE,45,1.6,2.5,53,0.00,,SKC,-99.99,VWS V14.01,2013-11-21 16:50:00,
2013-11-21 11:52:00,47.1,30.9,30.50,SSE,158,2.9,3.8,53,0.00,,SKC,-99.99,VWS V14.01,2013-11-21 16:52:00,
2013-11-21 11:54:00,46.9,30.7,30.50,SE,135,4.3,5.4,53,0.00,,SKC,-99.99,VWS V14.01,2013-11-21 16:54:00,
2013-11-21 11:55:00,46.9,30.7,30.50,SSE,158,2.7,5.4,53,0.00,,SKC,-99.99,VWS V14.01,2013-11-21 16:55:00,
2013-11-21 11:56:00,46.9,30.7,30.50,SSE,158,2.7,5.4,53,0.00,,SKC,-99.99,VWS V14.01,2013-11-21 16:56:00,
2013-11-21 11:58:00,46.9,30.7,30.50,East,90,3.6,6.5,53,0.00,,SKC,-99.99,VWS V14.01,2013-11-21 16:58:00,
2013-11-21 12:00:00,46.8,30.5,30.50,SE,135,5.8,5.8,53,0.00,,SKC,-99.99,VWS V14.01,2013-11-21 17:00:00,
2013-11-21 12:02:00,46.8,30.5,30.50,SSE,158,7.2,7.2,53,0.00,,SKC,-99.99,VWS V14.01,2013-11-21 17:02:00,
2013-11-21 12:04:00,46.8,30.5,30.50,ESE,112,4.7,6.0,53,0.00,,SKC,-99.99,VWS V14.01,2013-11-21 17:04:00,
2013-11-21 12:05:00,46.8,30.5,30.50,East,90,5.8,5.8,53,0.00,,SKC,-99.99,VWS V14.01,2013-11-21 17:05:00,
2013-11-21 12:06:00,46.8,30.5,30.50,East,90,5.8,5.8,53,0.00,,SKC,-99.99,VWS V14.01,2013-11-21 17:06:00,
2013-11-21 12:08:00,46.8,30.5,30.47,ESE,112,4.9,7.6,53,0.00,,SKC,-99.99,VWS V14.01,2013-11-21 17:08:00,
2013-11-21 12:10:00,46.8,30.5,30.47,SE,135,7.2,8.5,53,0.00,,SKC,-99.99,VWS V14.01,2013-11-21 17:10:00,
2013-11-21 12:12:00,46.8,30.5,30.47,ESE,112,7.4,7.4,53,0.00,,SKC,-99.99,VWS V14.01,2013-11-21 17:12:00,
2013-11-21 12:14:00,46.8,30.5,30.47,SSE,158,7.2,8.1,53,0.00,,SKC,-99.99,VWS V14.01,2013-11-21 17:14:00,
2013-11-21 12:15:00,46.8,30.5,30.47,SE,135,2.0,5.8,53,0.00,,SKC,-99.99,VWS V14.01,2013-11-21 17:15:00,
2013-11-21 12:16:00,46.8,30.5,30.47,SE,135,2.0,5.8,53,0.00,,SKC,-99.99,VWS V14.01,2013-11-21 17:16:00,
2013-11-21 12:18:00,46.8,30.5,30.47,ESE,112,1.3,4.0,53,0.00,,SKC,-99.99,VWS V14.01,2013-11-21 17:18:00,
2013-11-21 12:20:00,46.8,30.5,30.47,NE,45,3.4,6.3,53,0.00,,SKC,-99.99,VWS V14.01,2013-11-21 17:20:00,
2013-11-21 12:22:00,46.8,30.5,30.47,SE,135,5.8,5.8,53,0.00,,SKC,-99.99,VWS V14.01,2013-11-21 17:22:00,
2013-11-21 12:24:00,46.6,29.9,30.47,ESE,112,4.0,4.0,52,0.00,,SKC,-99.99,VWS V14.01,2013-11-21 17:24:00,
2013-11-21 12:25:00,46.6,29.9,30.47,ESE,112,4.9,7.2,52,0.00,,SKC,-99.99,VWS V14.01,2013-11-21 17:25:00,
2013-11-21 12:26:00,46.6,29.9,30.47,ESE,112,4.9,7.2,52,0.00,,SKC,-99.99,VWS V14.01,2013-11-21 17:26:00,
2013-11-21 12:28:00,46.6,29.9,30.47,SE,135,4.9,10.1,52,0.00,,SKC,-99.99,VWS V14.01,2013-11-21 17:28:00,
2013-11-21 12:30:00,46.6,29.9,30.47,ESE,112,3.4,4.0,52,0.00,,SKC,-99.99,VWS V14.01,2013-11-21 17:30:00,
2013-11-21 12:32:00,46.6,29.9,30.47,ESE,112,3.4,3.6,52,0.00,,SKC,-99.99,VWS V14.01,2013-11-21 17:32:00,
2013-11-21 12:34:00,46.6,29.9,30.47,SSE,158,5.4,7.6,52,0.00,,SKC,-99.99,VWS V14.01,2013-11-21 17:34:00,
2013-11-21 12:35:00,46.6,29.9,30.47,SE,135,5.4,6.3,52,0.00,,SKC,-99.99,VWS V14.01,2013-11-21 17:35:00,
2013-11-21 12:36:00,46.6,29.9,30.47,SE,135,5.4,6.3,52,0.00,,SKC,-99.99,VWS V14.01,2013-11-21 17:36:00,
2013-11-21 12:38:00,46.6,30.4,30.47,SE,135,5.4,6.5,53,0.00,,SKC,-99.99,VWS V14.01,2013-11-21 17:38:00,
2013-11-21 12:40:00,46.6,30.4,30.47,ESE,112,5.4,6.3,53,0.00,,SKC,-99.99,VWS V14.01,2013-11-21 17:40:00,
2013-11-21 12:42:00,46.6,30.4,30.47,East,90,2.7,7.4,53,0.00,,SKC,-99.99,VWS V14.01,2013-11-21 17:42:00,
2013-11-21 12:44:00,46.6,30.4,30.47,East,90,4.9,8.5,53,0.00,,SKC,-99.99,VWS V14.01,2013-11-21 17:44:00,
2013-11-21 12:45:00,46.8,30.5,30.47,SE,135,8.7,8.7,53,0.00,,SKC,-99.99,VWS V14.01,2013-11-21 17:45:00,
2013-11-21 12:46:00,46.8,30.5,30.47,SE,135,8.7,8.7,53,0.00,,SKC,-99.99,VWS V14.01,2013-11-21 17:46:00,
2013-11-21 12:48:00,46.8,30.5,30.47,East,90,3.8,5.6,53,0.00,,SKC,-99.99,VWS V14.01,2013-11-21 17:48:00,
2013-11-21 12:50:00,46.8,30.5,30.47,SE,135,5.6,10.1,53,0.00,,SKC,-99.99,VWS V14.01,2013-11-21 17:50:00,
2013-11-21 12:51:00,46.8,30.5,30.47,SE,135,5.8,7.8,53,0.00,,SKC,-99.99,VWS V14.01,2013-11-21 17:51:00,
2013-11-21 12:52:00,46.8,30.5,30.47,SE,135,6.5,7.2,53,0.00,,SKC,-99.99,VWS V14.01,2013-11-21 17:52:00,
2013-11-21 12:54:00,46.9,30.7,30.44,SSE,158,6.0,7.8,53,0.00,,SKC,-99.99,VWS V14.01,2013-11-21 17:54:00,
2013-11-21 12:56:00,46.9,30.7,30.44,SE,135,5.8,9.8,53,0.00,,SKC,-99.99,VWS V14.01,2013-11-21 17:56:00,
2013-11-21 12:58:00,46.9,30.7,30.44,SSE,158,4.7,6.0,53,0.00,,SKC,-99.99,VWS V14.01,2013-11-21 17:58:00,
2013-11-21 13:00:00,46.9,30.7,30.44,SE,135,6.3,9.2,53,0.00,,SKC,-99.99,VWS V14.01,2013-11-21 18:00:00,
2013-11-21 13:01:00,47.1,30.9,30.44,SE,135,10.3,10.3,53,0.00,,SKC,-99.99,VWS V14.01,2013-11-21 18:01:00,
2013-11-21 13:02:00,47.1,30.9,30.44,SE,135,7.8,10.5,53,0.00,,SKC,-99.99,VWS V14.01,2013-11-21 18:02:00,
2013-11-21 13:04:00,47.1,30.9,30.44,SE,135,6.5,11.0,53,0.00,,SKC,-99.99,VWS V14.01,2013-11-21 18:04:00,
2013-11-21 13:06:00,47.3,31.0,30.44,SE,135,9.2,10.3,53,0.00,,SKC,-99.99,VWS V14.01,2013-11-21 18:06:00,
2013-11-21 13:08:00,47.3,31.0,30.44,East,90,5.4,5.8,53,0.00,,SKC,-99.99,VWS V14.01,2013-11-21 18:08:00,
2013-11-21 13:10:00,47.5,31.2,30.44,SSE,158,9.0,9.0,53,0.00,,SKC,-99.99,VWS V14.01,2013-11-21 18:10:00,
2013-11-21 13:11:00,47.5,31.2,30.44,SE,135,9.4,11.0,53,0.00,,SKC,-99.99,VWS V14.01,2013-11-21 18:11:00,
2013-11-21 13:12:00,47.5,31.2,30.44,SE,135,8.5,11.0,53,0.00,,SKC,-99.99,VWS V14.01,2013-11-21 18:12:00,
2013-11-21 13:14:00,47.7,31.4,30.44,East,90,4.9,6.5,53,0.00,,SKC,-99.99,VWS V14.01,2013-11-21 18:14:00,
2013-11-21 13:16:00,47.7,30.9,30.44,ESE,112,7.6,8.5,52,0.00,,SKC,-99.99,VWS V14.01,2013-11-21 18:16:00,
2013-11-21 13:18:00,47.7,30.9,30.44,SE,135,5.6,7.8,52,0.00,,SKC,-99.99,VWS V14.01,2013-11-21 18:18:00,
2013-11-21 13:20:00,47.7,30.9,30.44,ESE,112,9.6,10.1,52,0.00,,SKC,-99.99,VWS V14.01,2013-11-21 18:20:00,
2013-11-21 13:21:00,47.7,30.9,30.44,East,90,7.2,10.1,52,0.00,,SKC,-99.99,VWS V14.01,2013-11-21 18:21:00,
2013-11-21 13:22:00,47.7,30.9,30.44,SE,135,5.8,7.8,52,0.00,,SKC,-99.99,VWS V14.01,2013-11-21 18:22:00,
2013-11-21 13:24:00,47.7,30.9,30.44,SE,135,6.0,8.1,52,0.00,,SKC,-99.99,VWS V14.01,2013-11-21 18:24:00,
2013-11-21 13:26:00,47.7,30.9,30.44,ESE,112,7.6,9.4,52,0.00,,SKC,-99.99,VWS V14.01,2013-11-21 18:26:00,
2013-11-21 13:28:00,47.7,30.9,30.44,ESE,112,5.8,6.7,52,0.00,,SKC,-99.99,VWS V14.01,2013-11-21 18:28:00,
2013-11-21 13:30:00,47.5,30.8,30.44,ESE,112,5.6,9.8,52,0.00,,SKC,-99.99,VWS V14.01,2013-11-21 18:30:00,
2013-11-21 13:31:00,47.5,30.8,30.44,SE,135,5.6,8.1,52,0.00,,SKC,-99.99,VWS V14.01,2013-11-21 18:31:00,
2013-11-21 13:32:00,47.5,30.8,30.44,ESE,112,6.0,10.1,52,0.00,,SKC,-99.99,VWS V14.01,2013-11-21 18:32:00,
2013-11-21 13:34:00,47.5,30.8,30.44,SE,135,2.5,4.0,52,0.00,,SKC,-99.99,VWS V14.01,2013-11-21 18:34:00,
2013-11-21 13:36:00,47.5,30.8,30.44,SE,135,8.1,8.1,52,0.00,,SKC,-99.99,VWS V14.01,2013-11-21 18:36:00,
2013-11-21 13:38:00,47.7,30.9,30.44,East,90,6.3,8.1,52,0.00,,SKC,-99.99,VWS V14.01,2013-11-21 18:38:00,
2013-11-21 13:40:00,47.7,30.9,30.44,SE,135,5.6,7.2,52,0.00,,SKC,-99.99,VWS V14.01,2013-11-21 18:40:00,
2013-11-21 13:41:00,47.7,30.9,30.44,SE,135,9.0,9.0,52,0.00,,SKC,-99.99,VWS V14.01,2013-11-21 18:41:00,
2013-11-21 13:42:00,47.7,30.9,30.44,SE,135,8.5,9.0,52,0.00,,SKC,-99.99,VWS V14.01,2013-11-21 18:42:00,
2013-11-21 13:44:00,47.7,30.9,30.44,ESE,112,6.5,7.8,52,0.00,,SKC,-99.99,VWS V14.01,2013-11-21 18:44:00,
2013-11-21 13:46:00,47.8,31.1,30.44,SE,135,9.8,9.8,52,0.00,,SKC,-99.99,VWS V14.01,2013-11-21 18:46:00,
2013-11-21 13:48:00,47.8,31.1,30.44,ESE,112,7.4,9.8,52,0.00,,SKC,-99.99,VWS V14.01,2013-11-21 18:48:00,
2013-11-21 13:50:00,47.8,31.1,30.44,SE,135,5.8,7.4,52,0.00,,SKC,-99.99,VWS V14.01,2013-11-21 18:50:00,
2013-11-21 13:51:00,47.8,31.1,30.44,SE,135,8.5,8.5,52,0.00,,SKC,-99.99,VWS V14.01,2013-11-21 18:51:00,
2013-11-21 13:52:00,47.8,31.1,30.44,SE,135,10.3,10.3,52,0.00,,SKC,-99.99,VWS V14.01,2013-11-21 18:52:00,
2013-11-21 13:54:00,47.8,31.1,30.42,SE,135,5.8,9.6,52,0.00,,SKC,-99.99,VWS V14.01,2013-11-21 18:54:00,
2013-11-21 13:56:00,47.8,31.1,30.41,SE,135,10.3,10.3,52,0.00,,SKC,-99.99,VWS V14.01,2013-11-21 18:56:00,
2013-11-21 13:58:00,47.8,31.1,30.42,SE,135,8.1,8.7,52,0.00,,SKC,-99.99,VWS V14.01,2013-11-21 18:58:00,
2013-11-21 14:00:00,47.8,31.1,30.42,SE,135,7.4,10.5,52,0.00,,SKC,-99.99,VWS V14.01,2013-11-21 19:00:00,
2013-11-21 14:01:00,47.8,31.1,30.41,ESE,112,6.3,8.7,52,0.00,,SKC,-99.99,VWS V14.01,2013-11-21 19:01:00,
2013-11-21 14:02:00,47.8,31.1,30.42,SE,135,7.6,8.7,52,0.00,,SKC,-99.99,VWS V14.01,2013-11-21 19:02:00,
2013-11-21 14:04:00,47.8,31.1,30.42,SE,135,3.1,7.2,52,0.00,,SKC,-99.99,VWS V14.01,2013-11-21 19:04:00,
2013-11-21 14:06:00,47.7,30.9,30.41,SE,135,4.0,6.5,52,0.00,,SKC,-99.99,VWS V14.01,2013-11-21 19:06:00,
2013-11-21 14:08:00,47.7,30.9,30.42,SSE,158,8.1,8.1,52,0.00,,SKC,-99.99,VWS V14.01,2013-11-21 19:08:00,
2013-11-21 14:10:00,47.7,30.9,30.42,SE,135,4.0,6.3,52,0.00,,SKC,-99.99,VWS V14.01,2013-11-21 19:10:00,
2013-11-21 14:11:00,47.7,30.9,30.41,SE,135,5.4,5.6,52,0.00,,SKC,-99.99,VWS V14.01,2013-11-21 19:11:00,
2013-11-21 14:12:00,47.7,30.9,30.42,SE,135,4.3,5.4,52,0.00,,SKC,-99.99,VWS V14.01,2013-11-21 19:12:00,
2013-11-21 14:14:00,47.7,30.9,30.42,SSE,158,5.8,8.7,52,0.00,,SKC,-99.99,VWS V14.01,2013-11-21 19:14:00,
2013-11-21 14:16:00,47.7,30.9,30.41,South,180,4.0,6.3,52,0.00,,SKC,-99.99,VWS V14.01,2013-11-21 19:16:00,
2013-11-21 14:18:00,47.7,31.4,30.42,SE,135,4.3,6.0,53,0.00,,SKC,-99.99,VWS V14.01,2013-11-21 19:18:00,
2013-11-21 14:20:00,47.7,31.4,30.42,South,180,6.5,6.5,53,0.00,,SKC,-99.99,VWS V14.01,2013-11-21 19:20:00,
2013-11-21 14:21:00,47.7,31.4,30.41,SE,135,4.0,6.5,53,0.00,,SKC,-99.99,VWS V14.01,2013-11-21 19:21:00,
2013-11-21 14:22:00,47.7,31.4,30.42,SSE,158,5.4,5.4,53,0.00,,SKC,-99.99,VWS V14.01,2013-11-21 19:22:00,
2013-11-21 14:24:00,47.7,31.4,30.42,SE,135,4.3,5.4,53,0.00,,SKC,-99.99,VWS V14.01,2013-11-21 19:24:00,
2013-11-21 14:26:00,47.5,31.2,30.41,East,90,4.0,4.7,53,0.00,,SKC,-99.99,VWS V14.01,2013-11-21 19:26:00,
2013-11-21 14:28:00,47.5,31.2,30.42,ESE,112,6.7,6.7,53,0.00,,SKC,-99.99,VWS V14.01,2013-11-21 19:28:00,
2013-11-21 14:30:00,47.5,31.2,30.42,SE,135,4.7,4.7,53,0.00,,SKC,-99.99,VWS V14.01,2013-11-21 19:30:00,
2013-11-21 14:31:00,47.5,31.2,30.41,SE,135,4.7,6.5,53,0.00,,SKC,-99.99,VWS V14.01,2013-11-21 19:31:00,
2013-11-21 14:32:00,47.5,31.2,30.42,SE,135,2.9,4.9,53,0.00,,SKC,-99.99,VWS V14.01,2013-11-21 19:32:00,
2013-11-21 14:34:00,47.5,31.2,30.42,SE,135,2.5,4.9,53,0.00,,SKC,-99.99,VWS V14.01,2013-11-21 19:34:00,
2013-11-21 14:36:00,47.5,31.2,30.41,SE,135,4.7,5.4,53,0.00,,SKC,-99.99,VWS V14.01,2013-11-21 19:36:00,
2013-11-21 14:38:00,47.5,31.2,30.42,SE,135,4.9,7.8,53,0.00,,SKC,-99.99,VWS V14.01,2013-11-21 19:38:00,
2013-11-21 14:40:00,47.5,31.2,30.42,SE,135,4.9,5.4,53,0.00,,SKC,-99.99,VWS V14.01,2013-11-21 19:40:00,
2013-11-21 14:41:00,47.5,31.2,30.41,SE,135,3.6,5.8,53,0.00,,SKC,-99.99,VWS V14.01,2013-11-21 19:41:00,
2013-11-21 14:42:00,47.5,31.2,30.42,SE,135,4.3,5.8,53,0.00,,SKC,-99.99,VWS V14.01,2013-11-21 19:42:00,
2013-11-21 14:44:00,47.5,31.2,30.42,SE,135,4.3,4.5,53,0.00,,SKC,-99.99,VWS V14.01,2013-11-21 19:44:00,
2013-11-21 14:46:00,47.3,31.0,30.41,SE,135,3.4,6.0,53,0.00,,SKC,-99.99,VWS V14.01,2013-11-21 19:46:00,
2013-11-21 14:48:00,47.3,31.0,30.42,SE,135,7.4,8.1,53,0.00,,SKC,-99.99,VWS V14.01,2013-11-21 19:48:00,
2013-11-21 14:50:00,47.3,31.0,30.42,SE,135,3.6,7.4,53,0.00,,SKC,-99.99,VWS V14.01,2013-11-21 19:50:00,
2013-11-21 14:51:00,47.3,31.0,30.41,SE,135,7.8,7.8,53,0.00,,SKC,-99.99,VWS V14.01,2013-11-21 19:51:00,
2013-11-21 14:52:00,47.3,31.0,30.42,East,90,5.8,8.1,53,0.00,,SKC,-99.99,VWS V14.01,2013-11-21 19:52:00,
2013-11-21 14:54:00,47.3,31.0,30.42,ESE,112,7.8,8.1,53,0.00,,SKC,-99.99,VWS V14.01,2013-11-21 19:54:00,
2013-11-21 14:56:00,47.3,31.0,30.41,ESE,112,9.8,9.8,53,0.00,,SKC,-99.99,VWS V14.01,2013-11-21 19:56:00,
2013-11-21 14:58:00,47.3,31.0,30.42,ESE,112,6.3,9.8,53,0.00,,SKC,-99.99,VWS V14.01,2013-11-21 19:58:00,
2013-11-21 15:00:00,47.3,31.0,30.42,SE,135,8.5,9.2,53,0.00,,SKC,-99.99,VWS V14.01,2013-11-21 20:00:00,
2013-11-21 15:01:00,47.3,31.0,30.41,SE,135,6.5,8.7,53,0.00,,SKC,-99.99,VWS V14.01,2013-11-21 20:01:00,
2013-11-21 15:02:00,47.3,31.0,30.42,ESE,112,10.5,10.5,53,0.00,,SKC,-99.99,VWS V14.01,2013-11-21 20:02:00,
2013-11-21 15:04:00,47.3,31.0,30.42,South,180,4.9,7.4,53,0.00,,SKC,-99.99,VWS V14.01,2013-11-21 20:04:00,
2013-11-21 15:06:00,47.1,30.9,30.41,SE,135,6.3,8.5,53,0.00,,SKC,-99.99,VWS V14.01,2013-11-21 20:06:00,
2013-11-21 15:08:00,47.1,30.9,30.42,SE,135,5.6,7.8,53,0.00,,SKC,-99.99,VWS V14.01,2013-11-21 20:08:00,
2013-11-21 15:10:00,47.1,30.9,30.42,SSE,158,6.3,8.7,53,0.00,,SKC,-99.99,VWS V14.01,2013-11-21 20:10:00,
2013-11-21 15:11:00,47.1,30.9,30.41,SE,135,6.3,7.2,53,0.00,,SKC,-99.99,VWS V14.01,2013-11-21 20:11:00,
2013-11-21 15:12:00,47.1,30.9,30.42,SE,135,4.9,6.5,53,0.00,,SKC,-99.99,VWS V14.01,2013-11-21 20:12:00,
2013-11-21 15:14:00,47.1,30.9,30.42,SE,135,6.3,8.7,53,0.00,,SKC,-99.99,VWS V14.01,2013-11-21 20:14:00,
2013-11-21 15:16:00,47.1,31.4,30.41,SSE,158,4.9,6.5,54,0.00,,SKC,-99.99,VWS V14.01,2013-11-21 20:16:00,
2013-11-21 15:18:00,47.1,31.3,30.42,SE,135,5.8,6.3,54,0.00,,SKC,-99.99,VWS V14.01,2013-11-21 20:18:00,
2013-11-21 15:20:00,47.3,31.5,30.42,SE,135,4.9,6.3,54,0.00,,SKC,-99.99,VWS V14.01,2013-11-21 20:20:00,
2013-11-21 15:21:00,47.3,31.5,30.41,SE,135,5.8,6.5,54,0.00,,SKC,-99.99,VWS V14.01,2013-11-21 20:21:00,
2013-11-21 15:22:00,47.3,31.5,30.42,SSE,158,2.9,6.5,54,0.00,,SKC,-99.99,VWS V14.01,2013-11-21 20:22:00,
2013-11-21 15:24:00,47.3,31.5,30.42,SE,135,3.8,6.3,54,0.00,,SKC,-99.99,VWS V14.01,2013-11-21 20:24:00,
2013-11-21 15:26:00,47.1,31.4,30.41,SE,135,3.1,3.1,54,0.00,,SKC,-99.99,VWS V14.01,2013-11-21 20:26:00,
2013-11-21 15:28:00,47.1,31.3,30.42,SE,135,2.5,3.1,54,0.00,,SKC,-99.99,VWS V14.01,2013-11-21 20:28:00,
2013-11-21 15:30:00,47.1,31.8,30.42,SE,135,4.3,4.3,55,0.00,,SKC,-99.99,VWS V14.01,2013-11-21 20:30:00,
2013-11-21 15:31:00,47.1,31.8,30.41,SE,135,4.0,4.3,55,0.00,,SKC,-99.99,VWS V14.01,2013-11-21 20:31:00,
2013-11-21 15:32:00,47.1,31.8,30.42,SE,135,4.0,4.3,55,0.00,,SKC,-99.99,VWS V14.01,2013-11-21 20:32:00,
2013-11-21 15:34:00,47.1,31.8,30.42,SE,135,3.6,4.9,55,0.00,,SKC,-99.99,VWS V14.01,2013-11-21 20:34:00,
2013-11-21 15:36:00,46.9,31.6,30.41,SSE,158,4.3,6.0,55,0.00,,SKC,-99.99,VWS V14.01,2013-11-21 20:36:00,
2013-11-21 15:38:00,46.9,31.6,30.42,SE,135,3.4,4.3,55,0.00,,SKC,-99.99,VWS V14.01,2013-11-21 20:38:00,
2013-11-21 15:40:00,46.9,31.6,30.42,SE,135,3.1,4.3,55,0.00,,SKC,-99.99,VWS V14.01,2013-11-21 20:40:00,
2013-11-21 15:41:00,46.8,31.9,30.41,ESE,112,5.4,5.4,56,0.00,,SKC,-99.99,VWS V14.01,2013-11-21 20:41:00,
2013-11-21 15:42:00,46.8,31.9,30.42,SE,135,5.6,5.6,56,0.00,,SKC,-99.99,VWS V14.01,2013-11-21 20:42:00,
2013-11-21 15:44:00,46.8,31.9,30.42,SE,135,2.7,3.8,56,0.00,,SKC,-99.99,VWS V14.01,2013-11-21 20:44:00,
2013-11-21 15:46:00,46.6,31.7,30.41,ESE,112,4.0,4.0,56,0.00,,SKC,-99.99,VWS V14.01,2013-11-21 20:46:00,
2013-11-21 15:48:00,46.6,31.7,30.42,SE,135,3.6,4.9,56,0.00,,SKC,-99.99,VWS V14.01,2013-11-21 20:48:00,
2013-11-21 15:50:00,46.4,31.6,30.42,SE,135,3.1,3.6,56,0.00,,SKC,-99.99,VWS V14.01,2013-11-21 20:50:00,
2013-11-21 15:51:00,46.4,31.6,30.41,SE,135,3.4,4.3,56,0.00,,SKC,-99.99,VWS V14.01,2013-11-21 20:51:00,
2013-11-21 15:52:00,46.4,31.6,30.42,SE,135,4.0,4.3,56,0.00,,SKC,-99.99,VWS V14.01,2013-11-21 20:52:00,
2013-11-21 15:54:00,46.2,31.8,30.42,SE,135,3.8,3.8,57,0.00,,SKC,-99.99,VWS V14.01,2013-11-21 20:54:00,
2013-11-21 15:56:00,46.0,31.7,30.41,SE,135,3.6,4.7,57,0.00,,SKC,-99.99,VWS V14.01,2013-11-21 20:56:00,
2013-11-21 15:58:00,46.0,31.7,30.42,SE,135,2.5,3.8,57,0.00,,SKC,-99.99,VWS V14.01,2013-11-21 20:58:00,
2013-11-21 16:00:00,46.0,31.7,30.42,SE,135,2.9,3.1,57,0.00,,SKC,-99.99,VWS V14.01,2013-11-21 21:00:00,
2013-11-21 16:01:00,45.9,31.9,30.41,SE,135,2.5,3.1,58,0.00,,SKC,-99.99,VWS V14.01,2013-11-21 21:01:00,
2013-11-21 16:02:00,45.9,31.9,30.42,SE,135,2.0,3.1,58,0.00,,SKC,-99.99,VWS V14.01,2013-11-21 21:02:00,
2013-11-21 16:04:00,45.9,31.9,30.42,SSE,158,2.5,2.5,58,0.00,,SKC,-99.99,VWS V14.01,2013-11-21 21:04:00,
2013-11-21 16:06:00,45.7,31.8,30.41,SSE,158,2.2,2.2,58,0.00,,SKC,-99.99,VWS V14.01,2013-11-21 21:06:00,
2013-11-21 16:08:00,45.7,31.8,30.42,SSE,158,0.0,2.2,58,0.00,,SKC,-99.99,VWS V14.01,2013-11-21 21:08:00,
2013-11-21 16:10:00,45.5,31.6,30.42,SE,135,0.0,2.0,58,0.00,,SKC,-99.99,VWS V14.01,2013-11-21 21:10:00,
2013-11-21 16:11:00,45.5,32.0,30.41,SE,135,0.0,0.0,59,0.00,,SKC,-99.99,VWS V14.01,2013-11-21 21:11:00,
2013-11-21 16:12:00,45.5,32.0,30.42,SE,135,0.0,0.0,59,0.00,,SKC,-99.99,VWS V14.01,2013-11-21 21:12:00,
2013-11-21 16:14:00,45.3,31.9,30.42,SE,135,0.0,0.0,59,0.00,,SKC,-99.99,VWS V14.01,2013-11-21 21:14:00,
2013-11-21 16:16:00,45.0,31.5,30.41,SE,135,0.0,1.1,59,0.00,,SKC,-99.99,VWS V14.01,2013-11-21 21:16:00,
2013-11-21 16:18:00,44.8,31.8,30.42,SE,135,0.0,0.0,60,0.00,,SKC,-99.99,VWS V14.01,2013-11-21 21:18:00,
2013-11-21 16:20:00,44.6,31.6,30.42,SE,135,0.0,0.0,60,0.00,,SKC,-99.99,VWS V14.01,2013-11-21 21:20:00,
2013-11-21 16:21:00,44.6,31.6,30.41,SE,135,0.0,0.0,60,0.00,,SKC,-99.99,VWS V14.01,2013-11-21 21:21:00,
2013-11-21 16:22:00,44.6,31.6,30.42,SE,135,0.0,0.0,60,0.00,,SKC,-99.99,VWS V14.01,2013-11-21 21:22:00,
2013-11-21 16:24:00,44.2,31.7,30.42,SE,135,0.0,0.0,61,0.00,,SKC,-99.99,VWS V14.01,2013-11-21 21:24:00,
2013-11-21 16:26:00,44.1,31.5,30.41,SE,135,0.0,0.0,61,0.00,,SKC,-99.99,VWS V14.01,2013-11-21 21:26:00,
2013-11-21 16:28:00,44.1,31.5,30.42,SE,135,0.0,0.0,61,0.00,,SKC,-99.99,VWS V14.01,2013-11-21 21:28:00,
2013-11-21 16:30:00,43.9,31.7,30.42,ESE,112,0.0,0.0,62,0.00,,SKC,-99.99,VWS V14.01,2013-11-21 21:30:00,
2013-11-21 16:31:00,43.5,31.4,30.41,ESE,112,0.0,0.0,62,0.00,,SKC,-99.99,VWS V14.01,2013-11-21 21:31:00,
2013-11-21 16:32:00,43.5,31.4,30.42,ESE,112,0.0,0.0,62,0.00,,SKC,-99.99,VWS V14.01,2013-11-21 21:32:00,
2013-11-21 16:34:00,43.3,31.2,30.42,ESE,112,0.0,0.0,62,0.00,,SKC,-99.99,VWS V14.01,2013-11-21 21:34:00,
2013-11-21 16:36:00,43.0,31.3,30.41,SE,135,0.0,0.0,63,0.00,,SKC,-99.99,VWS V14.01,2013-11-21 21:36:00,
2013-11-21 16:38:00,42.8,31.1,30.42,SE,135,0.0,0.0,63,0.00,,SKC,-99.99,VWS V14.01,2013-11-21 21:38:00,
2013-11-21 16:40:00,42.6,30.9,30.42,SE,135,0.0,0.0,63,0.00,,SKC,-99.99,VWS V14.01,2013-11-21 21:40:00,
2013-11-21 16:41:00,42.4,31.1,30.41,ESE,112,0.0,0.0,64,0.00,,SKC,-99.99,VWS V14.01,2013-11-21 21:41:00,
2013-11-21 16:42:00,42.4,31.1,30.42,ESE,112,0.0,0.0,64,0.00,,SKC,-99.99,VWS V14.01,2013-11-21 21:42:00,
2013-11-21 16:44:00,42.3,31.0,30.42,ESE,112,0.0,0.0,64,0.00,,SKC,-99.99,VWS V14.01,2013-11-21 21:44:00,
2013-11-21 16:46:00,41.9,30.6,30.41,ESE,112,0.0,0.0,64,0.00,,SKC,-99.99,VWS V14.01,2013-11-21 21:46:00,
2013-11-21 16:48:00,41.7,30.5,30.42,ESE,112,0.0,0.0,64,0.00,,SKC,-99.99,VWS V14.01,2013-11-21 21:48:00,
2013-11-21 16:50:00,41.5,30.3,30.42,ESE,112,0.0,0.0,64,0.00,,SKC,-99.99,VWS V14.01,2013-11-21 21:50:00,
2013-11-21 16:51:00,41.4,30.1,30.41,ESE,112,0.0,0.0,64,0.00,,SKC,-99.99,VWS V14.01,2013-11-21 21:51:00,
2013-11-21 16:52:00,41.4,30.1,30.42,ESE,112,0.0,0.0,64,0.00,,SKC,-99.99,VWS V14.01,2013-11-21 21:52:00,
2013-11-21 16:54:00,41.2,29.9,30.39,ESE,112,0.0,0.0,64,0.00,,SKC,-99.99,VWS V14.01,2013-11-21 21:54:00,
2013-11-21 16:56:00,40.8,30.0,30.39,ESE,112,0.0,0.0,65,0.00,,SKC,-99.99,VWS V14.01,2013-11-21 21:56:00,
2013-11-21 16:58:00,40.6,29.8,30.39,ESE,112,0.0,0.0,65,0.00,,SKC,-99.99,VWS V14.01,2013-11-21 21:58:00,
2013-11-21 17:00:00,40.6,30.2,30.39,ESE,112,0.0,0.0,66,0.00,,SKC,-99.99,VWS V14.01,2013-11-21 22:00:00,
2013-11-21 17:01:00,40.5,30.0,30.39,ESE,112,0.0,0.0,66,0.00,,SKC,-99.99,VWS V14.01,2013-11-21 22:01:00,
2013-11-21 17:02:00,40.5,30.0,30.39,ESE,112,0.0,0.0,66,0.00,,SKC,-99.99,VWS V14.01,2013-11-21 22:02:00,
2013-11-21 17:04:00,40.3,29.8,30.39,ESE,112,0.0,0.0,66,0.00,,SKC,-99.99,VWS V14.01,2013-11-21 22:04:00,
2013-11-21 17:06:00,40.1,30.0,30.39,ESE,112,0.0,0.0,67,0.00,,SKC,-99.99,VWS V14.01,2013-11-21 22:06:00,
2013-11-21 17:08:00,39.9,29.5,30.42,ESE,112,0.0,0.0,66,0.00,,SKC,-99.99,VWS V14.01,2013-11-21 22:08:00,
2013-11-21 17:10:00,39.9,29.9,30.42,ESE,112,0.0,0.0,67,0.00,,SKC,-99.99,VWS V14.01,2013-11-21 22:10:00,
2013-11-21 17:11:00,39.7,29.7,30.41,ESE,112,0.0,0.0,67,0.00,,SKC,-99.99,VWS V14.01,2013-11-21 22:11:00,
2013-11-21 17:12:00,39.7,29.7,30.42,ESE,112,0.0,0.0,67,0.00,,SKC,-99.99,VWS V14.01,2013-11-21 22:12:00,
2013-11-21 17:14:00,39.6,29.9,30.42,ESE,112,0.0,0.0,68,0.00,,SKC,-99.99,VWS V14.01,2013-11-21 22:14:00,
2013-11-21 17:16:00,39.6,30.2,30.41,ESE,112,0.0,0.0,69,0.00,,SKC,-99.99,VWS V14.01,2013-11-21 22:16:00,
2013-11-21 17:18:00,39.4,30.1,30.42,ESE,112,0.0,0.0,69,0.00,,SKC,-99.99,VWS V14.01,2013-11-21 22:18:00,
2013-11-21 17:20:00,39.4,30.1,30.42,ESE,112,0.0,0.0,69,0.00,,SKC,-99.99,VWS V14.01,2013-11-21 22:20:00,
2013-11-21 17:22:00,39.4,30.1,30.41,ESE,112,0.0,0.0,69,0.00,,SKC,-99.99,VWS V14.01,2013-11-21 22:22:00,
2013-11-21 17:24:00,39.4,30.1,30.42,ESE,112,0.0,0.0,69,0.00,,SKC,-99.99,VWS V14.01,2013-11-21 22:24:00,
2013-11-21 17:26:00,39.4,30.4,30.42,ESE,112,0.0,0.0,70,0.00,,SKC,-99.99,VWS V14.01,2013-11-21 22:26:00,
2013-11-21 17:27:00,39.4,30.4,30.41,ESE,112,0.0,0.0,70,0.00,,SKC,-99.99,VWS V14.01,2013-11-21 22:27:00,
2013-11-21 17:28:00,39.4,30.4,30.42,ESE,112,0.0,0.0,70,0.00,,SKC,-99.99,VWS V14.01,2013-11-21 22:28:00,
2013-11-21 17:30:00,39.4,30.4,30.42,ESE,112,0.0,0.0,70,0.00,,SKC,-99.99,VWS V14.01,2013-11-21 22:30:00,
2013-11-21 17:32:00,39.4,30.8,30.41,ESE,112,0.0,0.0,71,0.00,,SKC,-99.99,VWS V14.01,2013-11-21 22:32:00,
2013-11-21 17:34:00,39.6,31.0,30.42,ESE,112,0.0,0.0,71,0.00,,SKC,-99.99,VWS V14.01,2013-11-21 22:34:00,
2013-11-21 17:36:00,39.6,31.0,30.42,ESE,112,0.0,0.0,71,0.00,,SKC,-99.99,VWS V14.01,2013-11-21 22:36:00,
2013-11-21 17:37:00,39.6,31.0,30.41,ESE,112,0.0,0.0,71,0.00,,SKC,-99.99,VWS V14.01,2013-11-21 22:37:00,
2013-11-21 17:38:00,39.7,31.1,30.42,ESE,112,0.0,0.0,71,0.00,,SKC,-99.99,VWS V14.01,2013-11-21 22:38:00,
2013-11-21 17:40:00,39.7,31.1,30.42,ESE,112,0.0,0.0,71,0.00,,SKC,-99.99,VWS V14.01,2013-11-21 22:40:00,
2013-11-21 17:41:00,39.7,31.1,30.41,ESE,112,0.0,0.0,71,0.00,,SKC,-99.99,VWS V14.01,2013-11-21 22:41:00,
2013-11-21 17:42:00,39.7,31.1,30.42,ESE,112,0.0,0.0,71,0.00,,SKC,-99.99,VWS V14.01,2013-11-21 22:42:00,
2013-11-21 17:44:00,39.7,31.1,30.42,ESE,112,0.0,0.0,71,0.00,,SKC,-99.99,VWS V14.01,2013-11-21 22:44:00,
2013-11-21 17:46:00,39.9,31.6,30.42,ESE,112,0.0,0.0,72,0.00,,SKC,-99.99,VWS V14.01,2013-11-21 22:46:00,
2013-11-21 17:47:00,39.9,31.6,30.41,ESE,112,0.0,0.0,72,0.00,,SKC,-99.99,VWS V14.01,2013-11-21 22:47:00,
2013-11-21 17:48:00,39.9,31.6,30.42,ESE,112,0.0,0.0,72,0.00,,SKC,-99.99,VWS V14.01,2013-11-21 22:48:00,
2013-11-21 17:50:00,39.9,31.6,30.42,ESE,112,0.0,0.0,72,0.00,,SKC,-99.99,VWS V14.01,2013-11-21 22:50:00,
2013-11-21 17:52:00,40.1,31.8,30.41,ESE,112,0.0,0.0,72,0.00,,SKC,-99.99,VWS V14.01,2013-11-21 22:52:00,
2013-11-21 17:54:00,40.3,32.0,30.42,ESE,112,0.0,0.0,72,0.00,,SKC,-99.99,VWS V14.01,2013-11-21 22:54:00,
2013-11-21 17:56:00,40.3,32.0,30.42,ESE,112,0.0,0.0,72,0.00,,SKC,-99.99,VWS V14.01,2013-11-21 22:56:00,
2013-11-21 17:57:00,40.3,32.0,30.41,East,90,0.0,0.0,72,0.00,,SKC,-99.99,VWS V14.01,2013-11-21 22:57:00,
2013-11-21 17:58:00,40.3,32.0,30.42,East,90,0.0,0.0,72,0.00,,SKC,-99.99,VWS V14.01,2013-11-21 22:58:00,
2013-11-21 18:00:00,40.5,32.5,30.42,East,90,0.0,0.0,73,0.00,,SKC,-99.99,VWS V14.01,2013-11-21 23:00:00,
2013-11-21 18:02:00,40.5,32.5,30.41,East,90,0.0,0.0,73,0.00,,SKC,-99.99,VWS V14.01,2013-11-21 23:02:00,
2013-11-21 18:04:00,40.5,32.5,30.42,East,90,0.0,0.0,73,0.00,,SKC,-99.99,VWS V14.01,2013-11-21 23:04:00,
2013-11-21 18:06:00,40.5,32.5,30.42,East,90,0.0,0.0,73,0.00,,SKC,-99.99,VWS V14.01,2013-11-21 23:06:00,
2013-11-21 18:07:00,40.5,32.5,30.41,East,90,0.0,0.0,73,0.00,,SKC,-99.99,VWS V14.01,2013-11-21 23:07:00,
2013-11-21 18:08:00,40.6,32.7,30.42,East,90,0.0,0.0,73,0.00,,SKC,-99.99,VWS V14.01,2013-11-21 23:08:00,
2013-11-21 18:10:00,40.6,32.7,30.42,East,90,0.0,0.0,73,0.00,,SKC,-99.99,VWS V14.01,2013-11-21 23:10:00,
2013-11-21 18:12:00,40.6,33.0,30.41,East,90,0.0,0.0,74,0.00,,SKC,-99.99,VWS V14.01,2013-11-21 23:12:00,
2013-11-21 18:14:00,40.6,33.0,30.42,East,90,0.0,0.0,74,0.00,,SKC,-99.99,VWS V14.01,2013-11-21 23:14:00,
2013-11-21 18:16:00,40.6,33.0,30.42,East,90,0.0,0.0,74,0.00,,SKC,-99.99,VWS V14.01,2013-11-21 23:16:00,
2013-11-21 18:17:00,40.8,33.2,30.41,East,90,0.0,0.0,74,0.00,,SKC,-99.99,VWS V14.01,2013-11-21 23:17:00,
2013-11-21 18:18:00,40.8,33.2,30.42,East,90,0.0,0.0,74,0.00,,SKC,-99.99,VWS V14.01,2013-11-21 23:18:00,
2013-11-21 18:20:00,40.8,33.2,30.42,East,90,0.0,0.0,74,0.00,,SKC,-99.99,VWS V14.01,2013-11-21 23:20:00,
2013-11-21 18:22:00,41.0,33.4,30.41,East,90,0.0,0.0,74,0.00,,SKC,-99.99,VWS V14.01,2013-11-21 23:22:00,
2013-11-21 18:24:00,41.0,33.4,30.42,East,90,0.0,0.0,74,0.00,,SKC,-99.99,VWS V14.01,2013-11-21 23:24:00,
2013-11-21 18:26:00,41.0,33.4,30.42,East,90,0.0,0.0,74,0.00,,SKC,-99.99,VWS V14.01,2013-11-21 23:26:00,
2013-11-21 18:27:00,41.0,33.0,30.41,East,90,0.0,0.0,73,0.00,,SKC,-99.99,VWS V14.01,2013-11-21 23:27:00,
2013-11-21 18:28:00,41.2,33.5,30.42,East,90,0.0,0.0,74,0.00,,SKC,-99.99,VWS V14.01,2013-11-21 23:28:00,
2013-11-21 18:30:00,41.2,33.5,30.42,ESE,112,0.0,0.0,74,0.00,,SKC,-99.99,VWS V14.01,2013-11-21 23:30:00,
2013-11-21 18:32:00,41.2,33.5,30.41,ESE,112,0.0,0.0,74,0.00,,SKC,-99.99,VWS V14.01,2013-11-21 23:32:00,
2013-11-21 18:34:00,41.2,33.2,30.42,ESE,112,0.0,0.0,73,0.00,,SKC,-99.99,VWS V14.01,2013-11-21 23:34:00,
2013-11-21 18:36:00,41.2,33.5,30.42,East,90,0.0,0.0,74,0.00,,SKC,-99.99,VWS V14.01,2013-11-21 23:36:00,
2013-11-21 18:37:00,41.4,33.4,30.41,East,90,0.0,0.0,73,0.00,,SKC,-99.99,VWS V14.01,2013-11-21 23:37:00,
2013-11-21 18:38:00,41.4,33.4,30.39,East,90,0.0,0.0,73,0.00,,SKC,-99.99,VWS V14.01,2013-11-21 23:38:00,
2013-11-21 18:40:00,41.4,33.4,30.39,SE,135,0.0,0.0,73,0.00,,SKC,-99.99,VWS V14.01,2013-11-21 23:40:00,
2013-11-21 18:42:00,41.4,33.4,30.39,SE,135,0.0,0.0,73,0.00,,SKC,-99.99,VWS V14.01,2013-11-21 23:42:00,
2013-11-21 18:44:00,41.4,33.4,30.39,SE,135,0.0,0.0,73,0.00,,SKC,-99.99,VWS V14.01,2013-11-21 23:44:00,
2013-11-21 18:46:00,41.5,33.9,30.39,SE,135,0.0,0.0,74,0.00,,SKC,-99.99,VWS V14.01,2013-11-21 23:46:00,
2013-11-21 18:47:00,41.5,33.9,30.39,SE,135,0.0,0.0,74,0.00,,SKC,-99.99,VWS V14.01,2013-11-21 23:47:00,
2013-11-21 18:48:00,41.5,33.9,30.39,SE,135,0.0,0.0,74,0.00,,SKC,-99.99,VWS V14.01,2013-11-21 23:48:00,
2013-11-21 18:50:00,41.5,33.5,30.39,SE,135,0.0,0.0,73,0.00,,SKC,-99.99,VWS V14.01,2013-11-21 23:50:00,
2013-11-21 18:52:00,41.5,33.5,30.39,SE,135,0.0,0.0,73,0.00,,SKC,-99.99,VWS V14.01,2013-11-21 23:52:00,
2013-11-21 18:54:00,41.5,33.5,30.39,SE,135,0.0,0.0,73,0.00,,SKC,-99.99,VWS V14.01,2013-11-21 23:54:00,
2013-11-21 18:56:00,41.5,33.9,30.39,SE,135,0.0,0.0,74,0.00,,SKC,-99.99,VWS V14.01,2013-11-21 23:56:00,
2013-11-21 18:57:00,41.5,33.9,30.39,SE,135,0.0,0.0,74,0.00,,SKC,-99.99,VWS V14.01,2013-11-21 23:57:00,
2013-11-21 18:58:00,41.7,34.1,30.39,SE,135,0.0,0.0,74,0.00,,SKC,-99.99,VWS V14.01,2013-11-21 23:58:00,
2013-11-21 19:00:00,41.7,34.1,30.39,SE,135,0.0,0.0,74,0.00,,SKC,-99.99,VWS V14.01,2013-11-22 00:00:00,
2013-11-21 19:02:00,41.7,34.1,30.39,SE,135,0.0,0.0,74,0.00,,SKC,-99.99,VWS V14.01,2013-11-22 00:02:00,
2013-11-21 19:04:00,41.7,34.1,30.39,SE,135,0.0,0.0,74,0.00,,SKC,-99.99,VWS V14.01,2013-11-22 00:04:00,
2013-11-21 19:06:00,41.7,34.1,30.39,SE,135,0.0,0.0,74,0.00,,SKC,-99.99,VWS V14.01,2013-11-22 00:06:00,
2013-11-21 19:07:00,41.7,34.1,30.39,SE,135,0.0,0.0,74,0.00,,SKC,-99.99,VWS V14.01,2013-11-22 00:07:00,
2013-11-21 19:08:00,41.7,34.1,30.36,SE,135,0.0,0.0,74,0.00,,SKC,-99.99,VWS V14.01,2013-11-22 00:08:00,
2013-11-21 19:10:00,41.7,34.4,30.36,SE,135,0.0,0.0,75,0.00,,SKC,-99.99,VWS V14.01,2013-11-22 00:10:00,
2013-11-21 19:12:00,41.7,34.4,30.36,SE,135,0.0,0.0,75,0.00,,SKC,-99.99,VWS V14.01,2013-11-22 00:12:00,
2013-11-21 19:14:00,41.7,34.4,30.36,SE,135,0.0,0.0,75,0.00,,SKC,-99.99,VWS V14.01,2013-11-22 00:14:00,
2013-11-21 19:16:00,41.7,34.1,30.36,SE,135,0.0,0.0,74,0.00,,SKC,-99.99,VWS V14.01,2013-11-22 00:16:00,
2013-11-21 19:17:00,41.7,34.1,30.36,SE,135,0.0,0.0,74,0.00,,SKC,-99.99,VWS V14.01,2013-11-22 00:17:00,
2013-11-21 19:18:00,41.7,34.1,30.36,SE,135,0.0,0.0,74,0.00,,SKC,-99.99,VWS V14.01,2013-11-22 00:18:00,
2013-11-21 19:20:00,41.7,34.4,30.36,SE,135,0.0,0.0,75,0.00,,SKC,-99.99,VWS V14.01,2013-11-22 00:20:00,
2013-11-21 19:22:00,41.7,34.1,30.36,SE,135,0.0,0.0,74,0.00,,SKC,-99.99,VWS V14.01,2013-11-22 00:22:00,
2013-11-21 19:24:00,41.7,34.1,30.36,SE,135,0.0,0.0,74,0.00,,SKC,-99.99,VWS V14.01,2013-11-22 00:24:00,
2013-11-21 19:26:00,41.7,34.1,30.36,SSE,158,0.0,0.0,74,0.00,,SKC,-99.99,VWS V14.01,2013-11-22 00:26:00,
2013-11-21 19:27:00,41.7,34.1,30.36,SE,135,0.0,0.0,74,0.00,,SKC,-99.99,VWS V14.01,2013-11-22 00:27:00,
2013-11-21 19:28:00,41.9,34.2,30.36,SE,135,0.0,0.0,74,0.00,,SKC,-99.99,VWS V14.01,2013-11-22 00:28:00,
2013-11-21 19:30:00,41.9,34.2,30.36,SE,135,0.0,0.0,74,0.00,,SKC,-99.99,VWS V14.01,2013-11-22 00:30:00,
2013-11-21 19:32:00,41.9,34.2,30.36,SE,135,0.0,0.0,74,0.00,,SKC,-99.99,VWS V14.01,2013-11-22 00:32:00,
2013-11-21 19:34:00,42.1,34.4,30.36,SE,135,0.0,0.0,74,0.00,,SKC,-99.99,VWS V14.01,2013-11-22 00:34:00,
2013-11-21 19:36:00,42.1,34.4,30.36,SE,135,0.0,0.0,74,0.00,,SKC,-99.99,VWS V14.01,2013-11-22 00:36:00,
2013-11-21 19:37:00,42.1,34.4,30.36,SE,135,0.0,0.0,74,0.00,,SKC,-99.99,VWS V14.01,2013-11-22 00:37:00,
2013-11-21 19:38:00,42.1,34.4,30.39,SE,135,0.0,0.0,74,0.00,,SKC,-99.99,VWS V14.01,2013-11-22 00:38:00,
2013-11-21 19:40:00,42.1,34.7,30.39,SE,135,0.0,0.0,75,0.00,,SKC,-99.99,VWS V14.01,2013-11-22 00:40:00,
2013-11-21 19:42:00,42.1,34.7,30.39,SE,135,0.0,0.0,75,0.00,,SKC,-99.99,VWS V14.01,2013-11-22 00:42:00,
2013-11-21 19:44:00,42.1,34.7,30.39,SE,135,0.0,0.0,75,0.00,,SKC,-99.99,VWS V14.01,2013-11-22 00:44:00,
2013-11-21 19:46:00,42.1,34.7,30.39,SE,135,0.0,0.0,75,0.00,,SKC,-99.99,VWS V14.01,2013-11-22 00:46:00,
2013-11-21 19:47:00,42.1,34.7,30.39,SE,135,0.0,0.0,75,0.00,,SKC,-99.99,VWS V14.01,2013-11-22 00:47:00,
2013-11-21 19:48:00,42.1,34.7,30.39,SE,135,0.0,0.0,75,0.00,,SKC,-99.99,VWS V14.01,2013-11-22 00:48:00,
2013-11-21 19:50:00,42.1,34.7,30.39,SE,135,0.0,0.0,75,0.00,,SKC,-99.99,VWS V14.01,2013-11-22 00:50:00,
2013-11-21 19:52:00,42.1,34.7,30.39,SE,135,0.0,0.0,75,0.00,,SKC,-99.99,VWS V14.01,2013-11-22 00:52:00,
2013-11-21 19:54:00,42.1,34.7,30.39,SE,135,0.0,0.0,75,0.00,,SKC,-99.99,VWS V14.01,2013-11-22 00:54:00,
2013-11-21 19:56:00,42.1,34.7,30.39,SE,135,0.0,0.0,75,0.00,,SKC,-99.99,VWS V14.01,2013-11-22 00:56:00,
2013-11-21 19:57:00,42.1,34.7,30.39,SE,135,0.0,0.0,75,0.00,,SKC,-99.99,VWS V14.01,2013-11-22 00:57:00,
2013-11-21 19:58:00,42.1,34.7,30.39,SE,135,0.0,0.0,75,0.00,,SKC,-99.99,VWS V14.01,2013-11-22 00:58:00,
2013-11-21 20:00:00,42.1,34.7,30.39,SE,135,0.0,0.0,75,0.00,,SKC,-99.99,VWS V14.01,2013-11-22 01:00:00,
2013-11-21 20:02:00,42.1,34.7,30.39,SE,135,0.0,0.0,75,0.00,,SKC,-99.99,VWS V14.01,2013-11-22 01:02:00,
2013-11-21 20:04:00,42.1,34.7,30.39,SE,135,0.0,0.0,75,0.00,,SKC,-99.99,VWS V14.01,2013-11-22 01:04:00,
2013-11-21 20:06:00,42.3,34.9,30.39,SE,135,0.0,0.0,75,0.00,,SKC,-99.99,VWS V14.01,2013-11-22 01:06:00,
2013-11-21 20:07:00,42.1,34.7,30.39,SE,135,0.0,0.0,75,0.00,,SKC,-99.99,VWS V14.01,2013-11-22 01:07:00,
2013-11-21 20:08:00,42.1,34.7,30.39,SE,135,0.0,0.0,75,0.00,,SKC,-99.99,VWS V14.01,2013-11-22 01:08:00,
2013-11-21 20:10:00,42.3,34.9,30.39,SE,135,0.0,0.0,75,0.00,,SKC,-99.99,VWS V14.01,2013-11-22 01:10:00,
2013-11-21 20:12:00,42.1,34.7,30.39,SE,135,0.0,0.0,75,0.00,,SKC,-99.99,VWS V14.01,2013-11-22 01:12:00,
2013-11-21 20:14:00,42.3,34.9,30.39,SE,135,0.0,0.0,75,0.00,,SKC,-99.99,VWS V14.01,2013-11-22 01:14:00,
2013-11-21 20:16:00,42.3,34.9,30.39,SE,135,0.0,0.0,75,0.00,,SKC,-99.99,VWS V14.01,2013-11-22 01:16:00,
2013-11-21 20:17:00,42.3,35.2,30.39,SE,135,0.0,0.0,76,0.00,,SKC,-99.99,VWS V14.01,2013-11-22 01:17:00,
2013-11-21 20:18:00,42.3,35.2,30.39,SE,135,0.0,0.0,76,0.00,,SKC,-99.99,VWS V14.01,2013-11-22 01:18:00,
2013-11-21 20:20:00,42.3,35.2,30.39,SE,135,0.0,0.0,76,0.00,,SKC,-99.99,VWS V14.01,2013-11-22 01:20:00,
2013-11-21 20:22:00,42.3,35.2,30.39,SE,135,0.0,0.0,76,0.00,,SKC,-99.99,VWS V14.01,2013-11-22 01:22:00,
2013-11-21 20:24:00,42.3,35.2,30.39,SE,135,0.0,0.0,76,0.00,,SKC,-99.99,VWS V14.01,2013-11-22 01:24:00,
2013-11-21 20:26:00,42.3,35.2,30.39,SE,135,0.0,0.0,76,0.00,,SKC,-99.99,VWS V14.01,2013-11-22 01:26:00,
2013-11-21 20:27:00,42.3,35.2,30.39,SE,135,0.0,0.0,76,0.00,,SKC,-99.99,VWS V14.01,2013-11-22 01:27:00,
2013-11-21 20:28:00,42.3,35.2,30.39,SE,135,0.0,0.0,76,0.00,,SKC,-99.99,VWS V14.01,2013-11-22 01:28:00,
2013-11-21 20:30:00,42.3,35.2,30.39,SE,135,0.0,0.0,76,0.00,,SKC,-99.99,VWS V14.01,2013-11-22 01:30:00,
2013-11-21 20:32:00,42.4,35.4,30.39,SE,135,0.0,0.0,76,0.00,,SKC,-99.99,VWS V14.01,2013-11-22 01:32:00,
2013-11-21 20:34:00,42.4,35.4,30.39,SE,135,0.0,0.0,76,0.00,,SKC,-99.99,VWS V14.01,2013-11-22 01:34:00,
2013-11-21 20:36:00,42.4,35.4,30.39,SE,135,0.0,0.0,76,0.00,,SKC,-99.99,VWS V14.01,2013-11-22 01:36:00,
2013-11-21 20:37:00,42.4,35.4,30.39,SE,135,0.0,0.0,76,0.00,,SKC,-99.99,VWS V14.01,2013-11-22 01:37:00,
2013-11-21 20:38:00,42.4,35.4,30.39,SE,135,0.0,0.0,76,0.00,,SKC,-99.99,VWS V14.01,2013-11-22 01:38:00,
2013-11-21 20:40:00,42.4,35.4,30.39,SE,135,0.0,0.0,76,0.00,,SKC,-99.99,VWS V14.01,2013-11-22 01:40:00,
2013-11-21 20:42:00,42.4,35.4,30.39,SE,135,0.0,0.0,76,0.00,,SKC,-99.99,VWS V14.01,2013-11-22 01:42:00,
2013-11-21 20:44:00,42.4,35.4,30.39,SE,135,0.0,0.0,76,0.00,,SKC,-99.99,VWS V14.01,2013-11-22 01:44:00,
2013-11-21 20:46:00,42.6,35.6,30.39,SE,135,0.0,0.0,76,0.00,,SKC,-99.99,VWS V14.01,2013-11-22 01:46:00,
2013-11-21 20:47:00,42.6,35.6,30.39,SE,135,0.0,0.0,76,0.00,,SKC,-99.99,VWS V14.01,2013-11-22 01:47:00,
2013-11-21 20:48:00,42.6,35.6,30.39,SE,135,0.0,0.0,76,0.00,,SKC,-99.99,VWS V14.01,2013-11-22 01:48:00,
2013-11-21 20:50:00,42.6,35.6,30.39,SE,135,0.0,0.0,76,0.00,,SKC,-99.99,VWS V14.01,2013-11-22 01:50:00,
2013-11-21 20:51:00,42.6,35.6,30.50,SE,135,0.0,0.0,76,0.00,,SKC,-99.99,VWS V14.01,2013-11-22 01:51:00,
2013-11-21 20:52:00,42.6,35.6,30.39,SE,135,0.0,0.0,76,0.00,,SKC,-99.99,VWS V14.01,2013-11-22 01:52:00,
2013-11-21 20:53:00,42.6,35.6,30.39,SE,135,0.0,0.0,76,0.00,,SKC,-99.99,VWS V14.01,2013-11-22 01:53:00,
2013-11-21 20:54:00,42.8,35.8,30.39,SE,135,0.0,0.0,76,0.00,,SKC,-99.99,VWS V14.01,2013-11-22 01:54:00,
2013-11-21 20:55:00,42.8,35.8,30.39,SE,135,0.0,0.0,76,0.00,,SKC,-99.99,VWS V14.01,2013-11-22 01:55:00,
2013-11-21 20:56:00,42.8,35.8,30.39,SE,135,0.0,0.0,76,0.00,,SKC,-99.99,VWS V14.01,2013-11-22 01:56:00,
2013-11-21 20:57:00,42.8,35.8,30.39,SE,135,0.0,0.0,76,0.00,,SKC,-99.99,VWS V14.01,2013-11-22 01:57:00,
2013-11-21 20:58:00,42.8,35.8,30.39,SE,135,0.0,0.0,76,0.00,,SKC,-99.99,VWS V14.01,2013-11-22 01:58:00,
2013-11-21 20:59:00,42.8,35.8,30.39,SE,135,0.0,0.0,76,0.00,,SKC,-99.99,VWS V14.01,2013-11-22 01:59:00,
2013-11-21 21:00:00,42.8,35.8,30.39,SE,135,0.0,0.0,76,0.00,,SKC,-99.99,VWS V14.01,2013-11-22 02:00:00,
2013-11-21 21:01:00,42.8,35.8,30.39,SE,135,0.0,0.0,76,0.00,,SKC,-99.99,VWS V14.01,2013-11-22 02:01:00,
2013-11-21 21:02:00,42.8,35.8,30.39,SE,135,0.0,0.0,76,0.00,,SKC,-99.99,VWS V14.01,2013-11-22 02:02:00,
2013-11-21 21:03:00,42.8,35.8,30.39,SSE,158,0.0,0.0,76,0.00,,SKC,-99.99,VWS V14.01,2013-11-22 02:03:00,
2013-11-21 21:04:00,42.8,35.8,30.39,SE,135,0.0,0.0,76,0.00,,SKC,-99.99,VWS V14.01,2013-11-22 02:04:00,
2013-11-21 21:05:00,42.8,35.8,30.39,SE,135,0.0,0.0,76,0.00,,SKC,-99.99,VWS V14.01,2013-11-22 02:05:00,
2013-11-21 21:06:00,42.8,35.8,30.39,SE,135,0.0,0.0,76,0.00,,SKC,-99.99,VWS V14.01,2013-11-22 02:06:00,
2013-11-21 21:07:00,42.8,35.8,30.39,SE,135,0.0,0.0,76,0.00,,SKC,-99.99,VWS V14.01,2013-11-22 02:07:00,
2013-11-21 21:08:00,42.8,35.8,30.39,SE,135,0.0,0.0,76,0.00,,SKC,-99.99,VWS V14.01,2013-11-22 02:08:00,
2013-11-21 21:09:00,42.8,35.8,30.39,SE,135,0.0,0.0,76,0.00,,SKC,-99.99,VWS V14.01,2013-11-22 02:09:00,
2013-11-21 21:10:00,42.8,35.8,30.39,SE,135,0.0,0.0,76,0.00,,SKC,-99.99,VWS V14.01,2013-11-22 02:10:00,
2013-11-21 21:11:00,42.8,35.8,30.39,SE,135,0.0,0.0,76,0.00,,SKC,-99.99,VWS V14.01,2013-11-22 02:11:00,
2013-11-21 21:12:00,43.0,36.0,30.39,SE,135,0.0,0.0,76,0.00,,SKC,-99.99,VWS V14.01,2013-11-22 02:12:00,
2013-11-21 21:13:00,43.0,36.0,30.39,SE,135,0.0,0.0,76,0.00,,SKC,-99.99,VWS V14.01,2013-11-22 02:13:00,
2013-11-21 21:14:00,43.0,36.0,30.39,SE,135,0.0,0.0,76,0.00,,SKC,-99.99,VWS V14.01,2013-11-22 02:14:00,
2013-11-21 21:15:00,43.0,36.0,30.39,SE,135,0.0,0.0,76,0.00,,SKC,-99.99,VWS V14.01,2013-11-22 02:15:00,
2013-11-21 21:16:00,43.0,36.0,30.39,ESE,112,0.0,0.0,76,0.00,,SKC,-99.99,VWS V14.01,2013-11-22 02:16:00,
2013-11-21 21:17:00,43.0,36.0,30.39,SE,135,0.0,0.0,76,0.00,,SKC,-99.99,VWS V14.01,2013-11-22 02:17:00,
2013-11-21 21:18:00,43.0,36.0,30.39,SE,135,0.0,0.0,76,0.00,,SKC,-99.99,VWS V14.01,2013-11-22 02:18:00,
2013-11-21 21:19:00,43.0,36.0,30.39,SE,135,0.0,0.0,76,0.00,,SKC,-99.99,VWS V14.01,2013-11-22 02:19:00,
2013-11-21 21:20:00,43.0,36.0,30.39,SE,135,0.0,0.0,76,0.00,,SKC,-99.99,VWS V14.01,2013-11-22 02:20:00,
2013-11-21 21:21:00,43.0,36.0,30.39,SE,135,0.0,0.0,76,0.00,,SKC,-99.99,VWS V14.01,2013-11-22 02:21:00,
2013-11-21 21:22:00,43.0,36.0,30.39,SE,135,0.0,0.0,76,0.00,,SKC,-99.99,VWS V14.01,2013-11-22 02:22:00,
2013-11-21 21:23:00,43.0,36.0,30.36,SE,135,0.0,0.0,76,0.00,,SKC,-99.99,VWS V14.01,2013-11-22 02:23:00,
2013-11-21 21:24:00,43.0,36.0,30.36,SE,135,0.0,0.0,76,0.00,,SKC,-99.99,VWS V14.01,2013-11-22 02:24:00,
2013-11-21 21:25:00,43.0,36.0,30.36,SE,135,0.0,0.0,76,0.00,,SKC,-99.99,VWS V14.01,2013-11-22 02:25:00,
2013-11-21 21:26:00,43.2,36.1,30.36,ESE,112,2.0,2.0,76,0.00,,SKC,-99.99,VWS V14.01,2013-11-22 02:26:00,
2013-11-21 21:27:00,43.0,36.0,30.36,ESE,112,2.0,2.0,76,0.00,,SKC,-99.99,VWS V14.01,2013-11-22 02:27:00,
2013-11-21 21:28:00,43.0,36.0,30.36,ESE,112,0.0,2.0,76,0.00,,SKC,-99.99,VWS V14.01,2013-11-22 02:28:00,
2013-11-21 21:29:00,43.0,36.0,30.36,SE,135,0.0,2.0,76,0.00,,SKC,-99.99,VWS V14.01,2013-11-22 02:29:00,
2013-11-21 21:30:00,43.2,36.1,30.36,SE,135,0.0,2.0,76,0.00,,SKC,-99.99,VWS V14.01,2013-11-22 02:30:00,
2013-11-21 21:31:00,43.2,36.1,30.36,SE,135,0.0,2.0,76,0.00,,SKC,-99.99,VWS V14.01,2013-11-22 02:31:00,
2013-11-21 21:32:00,43.2,36.1,30.36,SE,135,0.0,2.0,76,0.00,,SKC,-99.99,VWS V14.01,2013-11-22 02:32:00,
2013-11-21 21:33:00,43.2,36.1,30.36,SE,135,0.0,2.0,76,0.00,,SKC,-99.99,VWS V14.01,2013-11-22 02:33:00,
2013-11-21 21:34:00,43.2,36.1,30.36,SE,135,0.0,2.0,76,0.00,,SKC,-99.99,VWS V14.01,2013-11-22 02:34:00,
2013-11-21 21:35:00,43.2,36.1,30.36,SE,135,0.0,2.0,76,0.00,,SKC,-99.99,VWS V14.01,2013-11-22 02:35:00,
2013-11-21 21:36:00,43.3,36.3,30.36,SE,135,0.0,2.0,76,0.00,,SKC,-99.99,VWS V14.01,2013-11-22 02:36:00,
2013-11-21 21:37:00,43.3,36.3,30.36,SE,135,0.0,2.0,76,0.00,,SKC,-99.99,VWS V14.01,2013-11-22 02:37:00,
2013-11-21 21:38:00,43.3,36.3,30.39,SE,135,0.0,2.0,76,0.00,,SKC,-99.99,VWS V14.01,2013-11-22 02:38:00,
2013-11-21 21:39:00,43.3,36.3,30.39,SE,135,0.0,2.0,76,0.00,,SKC,-99.99,VWS V14.01,2013-11-22 02:39:00,
2013-11-21 21:40:00,43.3,36.3,30.39,SE,135,0.0,2.0,76,0.00,,SKC,-99.99,VWS V14.01,2013-11-22 02:40:00,
2013-11-21 21:41:00,43.3,36.3,30.39,SE,135,0.0,2.0,76,0.00,,SKC,-99.99,VWS V14.01,2013-11-22 02:41:00,
2013-11-21 21:42:00,43.3,36.3,30.39,SE,135,0.0,2.0,76,0.00,,SKC,-99.99,VWS V14.01,2013-11-22 02:42:00,
2013-11-21 21:43:00,43.3,36.3,30.39,SE,135,0.0,2.0,76,0.00,,SKC,-99.99,VWS V14.01,2013-11-22 02:43:00,
2013-11-21 21:44:00,43.3,36.3,30.39,SE,135,0.0,2.0,76,0.00,,SKC,-99.99,VWS V14.01,2013-11-22 02:44:00,
2013-11-21 21:45:00,43.3,36.3,30.39,SE,135,0.0,2.0,76,0.00,,SKC,-99.99,VWS V14.01,2013-11-22 02:45:00,
2013-11-21 21:46:00,43.3,36.3,30.39,SE,135,0.0,2.0,76,0.00,,SKC,-99.99,VWS V14.01,2013-11-22 02:46:00,
2013-11-21 21:47:00,43.3,36.3,30.39,SE,135,0.0,0.0,76,0.00,,SKC,-99.99,VWS V14.01,2013-11-22 02:47:00,
2013-11-21 21:48:00,43.3,36.3,30.39,SE,135,0.0,0.0,76,0.00,,SKC,-99.99,VWS V14.01,2013-11-22 02:48:00,
2013-11-21 21:49:00,43.3,36.3,30.39,SE,135,0.0,0.0,76,0.00,,SKC,-99.99,VWS V14.01,2013-11-22 02:49:00,
2013-11-21 21:50:00,43.3,36.3,30.39,SE,135,0.0,0.0,76,0.00,,SKC,-99.99,VWS V14.01,2013-11-22 02:50:00,
2013-11-21 21:51:00,43.3,36.3,30.39,SE,135,0.0,0.0,76,0.00,,SKC,-99.99,VWS V14.01,2013-11-22 02:51:00,
2013-11-21 21:52:00,43.3,36.3,30.39,SE,135,0.0,0.0,76,0.00,,SKC,-99.99,VWS V14.01,2013-11-22 02:52:00,
2013-11-21 21:53:00,43.3,36.6,30.36,SE,135,0.0,0.0,77,0.00,,SKC,-99.99,VWS V14.01,2013-11-22 02:53:00,
2013-11-21 21:54:00,43.3,36.6,30.36,SE,135,0.0,0.0,77,0.00,,SKC,-99.99,VWS V14.01,2013-11-22 02:54:00,
2013-11-21 21:55:00,43.3,36.3,30.36,SE,135,0.0,0.0,76,0.00,,SKC,-99.99,VWS V14.01,2013-11-22 02:55:00,
2013-11-21 21:56:00,43.3,36.3,30.36,SE,135,0.0,0.0,76,0.00,,SKC,-99.99,VWS V14.01,2013-11-22 02:56:00,
2013-11-21 21:57:00,43.3,36.3,30.36,SE,135,0.0,0.0,76,0.00,,SKC,-99.99,VWS V14.01,2013-11-22 02:57:00,
2013-11-21 21:58:00,43.5,36.5,30.36,SE,135,0.0,0.0,76,0.00,,SKC,-99.99,VWS V14.01,2013-11-22 02:58:00,
2013-11-21 21:59:00,43.5,36.8,30.36,SE,135,0.0,0.0,77,0.00,,SKC,-99.99,VWS V14.01,2013-11-22 02:59:00,
2013-11-21 22:00:00,43.3,36.6,30.36,SE,135,0.0,0.0,77,0.00,,SKC,-99.99,VWS V14.01,2013-11-22 03:00:00,
2013-11-21 22:01:00,43.3,36.6,30.36,SE,135,0.0,0.0,77,0.00,,SKC,-99.99,VWS V14.01,2013-11-22 03:01:00,
2013-11-21 22:02:00,43.3,36.6,30.36,SE,135,0.0,0.0,77,0.00,,SKC,-99.99,VWS V14.01,2013-11-22 03:02:00,
2013-11-21 22:03:00,43.3,36.6,30.36,SE,135,0.0,0.0,77,0.00,,SKC,-99.99,VWS V14.01,2013-11-22 03:03:00,
2013-11-21 22:04:00,43.3,36.6,30.36,SE,135,0.0,0.0,77,0.00,,SKC,-99.99,VWS V14.01,2013-11-22 03:04:00,
2013-11-21 22:05:00,43.5,36.8,30.36,SE,135,0.0,0.0,77,0.00,,SKC,-99.99,VWS V14.01,2013-11-22 03:05:00,
2013-11-21 22:06:00,43.5,36.8,30.36,SE,135,0.0,0.0,77,0.00,,SKC,-99.99,VWS V14.01,2013-11-22 03:06:00,
2013-11-21 22:07:00,43.5,36.8,30.36,SE,135,0.0,0.0,77,0.00,,SKC,-99.99,VWS V14.01,2013-11-22 03:07:00,
2013-11-21 22:08:00,43.5,36.8,30.36,SE,135,0.0,0.0,77,0.00,,SKC,-99.99,VWS V14.01,2013-11-22 03:08:00,
2013-11-21 22:09:00,43.5,36.8,30.36,SE,135,0.0,0.0,77,0.00,,SKC,-99.99,VWS V14.01,2013-11-22 03:09:00,
2013-11-21 22:10:00,43.5,36.8,30.36,SE,135,0.0,0.0,77,0.00,,SKC,-99.99,VWS V14.01,2013-11-22 03:10:00,
2013-11-21 22:11:00,43.5,36.8,30.36,SE,135,0.0,0.0,77,0.00,,SKC,-99.99,VWS V14.01,2013-11-22 03:11:00,
2013-11-21 22:12:00,43.5,36.8,30.36,SE,135,0.0,0.0,77,0.00,,SKC,-99.99,VWS V14.01,2013-11-22 03:12:00,
2013-11-21 22:13:00,43.5,36.8,30.36,SE,135,0.0,0.0,77,0.00,,SKC,-99.99,VWS V14.01,2013-11-22 03:13:00,
2013-11-21 22:14:00,43.5,36.8,30.36,SE,135,0.0,0.0,77,0.00,,SKC,-99.99,VWS V14.01,2013-11-22 03:14:00,
2013-11-21 22:15:00,43.5,36.8,30.36,SE,135,0.0,0.0,77,0.00,,SKC,-99.99,VWS V14.01,2013-11-22 03:15:00,
2013-11-21 22:16:00,43.5,36.8,30.36,SE,135,0.0,0.0,77,0.00,,SKC,-99.99,VWS V14.01,2013-11-22 03:16:00,
2013-11-21 22:17:00,43.5,36.8,30.36,SE,135,0.0,0.0,77,0.00,,SKC,-99.99,VWS V14.01,2013-11-22 03:17:00,
2013-11-21 22:18:00,43.5,36.8,30.36,SE,135,0.0,0.0,77,0.00,,SKC,-99.99,VWS V14.01,2013-11-22 03:18:00,
2013-11-21 22:19:00,43.5,36.8,30.36,SE,135,0.0,0.0,77,0.00,,SKC,-99.99,VWS V14.01,2013-11-22 03:19:00,
2013-11-21 22:20:00,43.5,36.8,30.36,SE,135,0.0,0.0,77,0.00,,SKC,-99.99,VWS V14.01,2013-11-22 03:20:00,
2013-11-21 22:21:00,43.5,36.8,30.36,SE,135,0.0,0.0,77,0.00,,SKC,-99.99,VWS V14.01,2013-11-22 03:21:00,
2013-11-21 22:22:00,43.5,36.8,30.36,SE,135,0.0,0.0,77,0.00,,SKC,-99.99,VWS V14.01,2013-11-22 03:22:00,
2013-11-21 22:23:00,43.5,36.8,30.33,SE,135,0.0,0.0,77,0.00,,SKC,-99.99,VWS V14.01,2013-11-22 03:23:00,
2013-11-21 22:24:00,43.5,36.8,30.33,SE,135,0.0,0.0,77,0.00,,SKC,-99.99,VWS V14.01,2013-11-22 03:24:00,
2013-11-21 22:25:00,43.5,36.8,30.33,SE,135,0.0,0.0,77,0.00,,SKC,-99.99,VWS V14.01,2013-11-22 03:25:00,
2013-11-21 22:26:00,43.5,36.8,30.33,SE,135,0.0,0.0,77,0.00,,SKC,-99.99,VWS V14.01,2013-11-22 03:26:00,
2013-11-21 22:27:00,43.5,36.8,30.33,SE,135,0.0,0.0,77,0.00,,SKC,-99.99,VWS V14.01,2013-11-22 03:27:00,
2013-11-21 22:28:00,43.5,36.8,30.33,SE,135,0.0,0.0,77,0.00,,SKC,-99.99,VWS V14.01,2013-11-22 03:28:00,
2013-11-21 22:29:00,43.5,36.8,30.33,SE,135,0.0,0.0,77,0.00,,SKC,-99.99,VWS V14.01,2013-11-22 03:29:00,
2013-11-21 22:30:00,43.5,36.8,30.33,SE,135,0.0,0.0,77,0.00,,SKC,-99.99,VWS V14.01,2013-11-22 03:30:00,
2013-11-21 22:31:00,43.5,36.8,30.33,SE,135,0.0,0.0,77,0.00,,SKC,-99.99,VWS V14.01,2013-11-22 03:31:00,
2013-11-21 22:32:00,43.5,36.8,30.33,SE,135,0.0,0.0,77,0.00,,SKC,-99.99,VWS V14.01,2013-11-22 03:32:00,
2013-11-21 22:33:00,43.5,36.8,30.33,SE,135,0.0,0.0,77,0.00,,SKC,-99.99,VWS V14.01,2013-11-22 03:33:00,
2013-11-21 22:34:00,43.5,37.1,30.33,SE,135,0.0,0.0,78,0.00,,SKC,-99.99,VWS V14.01,2013-11-22 03:34:00,
2013-11-21 22:35:00,43.5,37.1,30.33,SE,135,0.0,0.0,78,0.00,,SKC,-99.99,VWS V14.01,2013-11-22 03:35:00,
2013-11-21 22:36:00,43.5,36.8,30.33,SE,135,1.6,1.6,77,0.00,,SKC,-99.99,VWS V14.01,2013-11-22 03:36:00,
2013-11-21 22:37:00,43.5,37.1,30.33,SE,135,1.6,1.6,78,0.00,,SKC,-99.99,VWS V14.01,2013-11-22 03:37:00,
2013-11-21 22:38:00,43.5,37.1,30.33,SE,135,2.0,2.0,78,0.00,,SKC,-99.99,VWS V14.01,2013-11-22 03:38:00,
2013-11-21 22:39:00,43.5,37.1,30.33,SE,135,1.6,2.0,78,0.00,,SKC,-99.99,VWS V14.01,2013-11-22 03:39:00,
2013-11-21 22:40:00,43.5,36.8,30.33,SE,135,0.0,2.0,77,0.00,,SKC,-99.99,VWS V14.01,2013-11-22 03:40:00,
2013-11-21 22:41:00,43.5,36.8,30.33,SE,135,0.0,2.0,77,0.00,,SKC,-99.99,VWS V14.01,2013-11-22 03:41:00,
2013-11-21 22:42:00,43.5,37.1,30.33,SE,135,0.0,2.0,78,0.00,,SKC,-99.99,VWS V14.01,2013-11-22 03:42:00,
2013-11-21 22:43:00,43.5,37.1,30.33,SE,135,0.0,2.0,78,0.00,,SKC,-99.99,VWS V14.01,2013-11-22 03:43:00,
2013-11-21 22:44:00,43.5,37.1,30.33,SE,135,0.0,2.0,78,0.00,,SKC,-99.99,VWS V14.01,2013-11-22 03:44:00,
2013-11-21 22:45:00,43.5,37.1,30.33,SE,135,0.0,2.0,78,0.00,,SKC,-99.99,VWS V14.01,2013-11-22 03:45:00,
2013-11-21 22:46:00,43.5,37.1,30.33,SE,135,0.0,2.0,78,0.00,,SKC,-99.99,VWS V14.01,2013-11-22 03:46:00,
2013-11-21 22:47:00,43.5,37.1,30.33,SE,135,0.0,2.0,78,0.00,,SKC,-99.99,VWS V14.01,2013-11-22 03:47:00,
2013-11-21 22:48:00,43.5,37.1,30.33,SE,135,0.0,2.0,78,0.00,,SKC,-99.99,VWS V14.01,2013-11-22 03:48:00,
2013-11-21 22:49:00,43.7,37.0,30.33,SE,135,0.0,2.0,77,0.00,,SKC,-99.99,VWS V14.01,2013-11-22 03:49:00,
2013-11-21 22:50:00,43.7,37.3,30.33,SE,135,0.0,2.0,78,0.00,,SKC,-99.99,VWS V14.01,2013-11-22 03:50:00,
2013-11-21 22:51:00,43.7,37.3,30.33,SE,135,0.0,2.0,78,0.00,,SKC,-99.99,VWS V14.01,2013-11-22 03:51:00,
2013-11-21 22:52:00,43.7,37.3,30.33,SE,135,0.0,2.0,78,0.00,,SKC,-99.99,VWS V14.01,2013-11-22 03:52:00,
2013-11-21 22:53:00,43.7,37.3,30.33,SE,135,0.0,2.0,78,0.00,,SKC,-99.99,VWS V14.01,2013-11-22 03:53:00,
2013-11-21 22:54:00,43.5,37.1,30.33,SE,135,0.0,2.0,78,0.00,,SKC,-99.99,VWS V14.01,2013-11-22 03:54:00,
2013-11-21 22:55:00,43.5,37.1,30.33,SE,135,0.0,2.0,78,0.00,,SKC,-99.99,VWS V14.01,2013-11-22 03:55:00,
2013-11-21 22:56:00,43.7,37.3,30.33,SE,135,0.0,2.0,78,0.00,,SKC,-99.99,VWS V14.01,2013-11-22 03:56:00,
2013-11-21 22:57:00,43.7,37.3,30.33,SE,135,2.9,2.9,78,0.00,,SKC,-99.99,VWS V14.01,2013-11-22 03:57:00,
2013-11-21 22:58:00,43.7,37.3,30.33,SE,135,2.9,2.9,78,0.00,,SKC,-99.99,VWS V14.01,2013-11-22 03:58:00,
2013-11-21 22:59:00,43.7,37.3,30.33,SE,135,2.0,2.9,78,0.00,,SKC,-99.99,VWS V14.01,2013-11-22 03:59:00,
2013-11-21 23:00:00,43.7,37.3,30.33,SE,135,2.0,2.9,78,0.00,,SKC,-99.99,VWS V14.01,2013-11-22 04:00:00,
2013-11-21 23:01:00,43.7,37.3,30.33,ESE,112,0.0,2.9,78,0.00,,SKC,-99.99,VWS V14.01,2013-11-22 04:01:00,
2013-11-21 23:02:00,43.7,37.3,30.33,ESE,112,0.0,2.9,78,0.00,,SKC,-99.99,VWS V14.01,2013-11-22 04:02:00,
2013-11-21 23:03:00,43.7,37.3,30.33,ESE,112,0.0,2.9,78,0.00,,SKC,-99.99,VWS V14.01,2013-11-22 04:03:00,
2013-11-21 23:04:00,43.7,37.3,30.33,SE,135,0.0,2.9,78,0.00,,SKC,-99.99,VWS V14.01,2013-11-22 04:04:00,
2013-11-21 23:05:00,43.7,37.3,30.33,SE,135,0.0,2.9,78,0.00,,SKC,-99.99,VWS V14.01,2013-11-22 04:05:00,
2013-11-21 23:06:00,43.7,37.3,30.33,SE,135,0.0,2.9,78,0.00,,SKC,-99.99,VWS V14.01,2013-11-22 04:06:00,
2013-11-21 23:07:00,43.7,37.3,30.33,ESE,112,1.6,2.9,78,0.00,,SKC,-99.99,VWS V14.01,2013-11-22 04:07:00,
2013-11-21 23:08:00,43.7,37.3,30.33,SE,135,2.2,2.9,78,0.00,,SKC,-99.99,VWS V14.01,2013-11-22 04:08:00,
2013-11-21 23:09:00,43.7,37.3,30.33,SE,135,2.5,2.9,78,0.00,,SKC,-99.99,VWS V14.01,2013-11-22 04:09:00,
2013-11-21 23:10:00,43.7,37.3,30.33,SE,135,1.3,2.9,78,0.00,,SKC,-99.99,VWS V14.01,2013-11-22 04:10:00,
2013-11-21 23:11:00,43.7,37.3,30.33,SE,135,2.2,2.9,78,0.00,,SKC,-99.99,VWS V14.01,2013-11-22 04:11:00,
2013-11-21 23:12:00,43.7,37.3,30.33,SE,135,0.0,2.9,78,0.00,,SKC,-99.99,VWS V14.01,2013-11-22 04:12:00,
2013-11-21 23:13:00,43.7,37.6,30.33,ESE,112,0.0,2.9,79,0.00,,SKC,-99.99,VWS V14.01,2013-11-22 04:13:00,
2013-11-21 23:14:00,43.7,37.6,30.33,SE,135,0.0,2.9,79,0.00,,SKC,-99.99,VWS V14.01,2013-11-22 04:14:00,
2013-11-21 23:15:00,43.7,37.6,30.33,SE,135,0.0,2.9,79,0.00,,SKC,-99.99,VWS V14.01,2013-11-22 04:15:00,
2013-11-21 23:16:00,43.7,37.3,30.33,SE,135,0.0,2.9,78,0.00,,SKC,-99.99,VWS V14.01,2013-11-22 04:16:00,
2013-11-21 23:17:00,43.7,37.3,30.33,SE,135,0.0,2.9,78,0.00,,SKC,-99.99,VWS V14.01,2013-11-22 04:17:00,
2013-11-21 23:18:00,43.7,37.3,30.33,SE,135,0.0,2.5,78,0.00,,SKC,-99.99,VWS V14.01,2013-11-22 04:18:00,
2013-11-21 23:19:00,43.7,37.3,30.33,SE,135,0.0,2.5,78,0.00,,SKC,-99.99,VWS V14.01,2013-11-22 04:19:00,
2013-11-21 23:20:00,43.7,37.3,30.33,SE,135,0.0,2.5,78,0.00,,SKC,-99.99,VWS V14.01,2013-11-22 04:20:00,
2013-11-21 23:21:00,43.7,37.3,30.33,SE,135,0.0,2.5,78,0.00,,SKC,-99.99,VWS V14.01,2013-11-22 04:21:00,
2013-11-21 23:22:00,43.7,37.3,30.33,ESE,112,2.2,2.5,78,0.00,,SKC,-99.99,VWS V14.01,2013-11-22 04:22:00,
2013-11-21 23:23:00,43.7,37.3,30.33,ESE,112,2.7,2.7,78,0.00,,SKC,-99.99,VWS V14.01,2013-11-22 04:23:00,
2013-11-21 23:24:00,43.7,37.3,30.33,SE,135,2.0,2.7,78,0.00,,SKC,-99.99,VWS V14.01,2013-11-22 04:24:00,
2013-11-21 23:25:00,43.7,37.3,30.33,ESE,112,2.0,2.7,78,0.00,,SKC,-99.99,VWS V14.01,2013-11-22 04:25:00,
2013-11-21 23:26:00,43.7,37.3,30.33,ESE,112,1.6,2.7,78,0.00,,SKC,-99.99,VWS V14.01,2013-11-22 04:26:00,
2013-11-21 23:27:00,43.9,37.5,30.33,SE,135,2.0,2.7,78,0.00,,SKC,-99.99,VWS V14.01,2013-11-22 04:27:00,
2013-11-21 23:28:00,43.9,37.5,30.33,SE,135,0.0,2.7,78,0.00,,SKC,-99.99,VWS V14.01,2013-11-22 04:28:00,
2013-11-21 23:29:00,43.9,37.5,30.33,SE,135,0.0,2.7,78,0.00,,SKC,-99.99,VWS V14.01,2013-11-22 04:29:00,
2013-11-21 23:30:00,43.9,37.5,30.33,SE,135,0.0,2.7,78,0.00,,SKC,-99.99,VWS V14.01,2013-11-22 04:30:00,
2013-11-21 23:31:00,43.9,37.5,30.33,SE,135,0.0,2.7,78,0.00,,SKC,-99.99,VWS V14.01,2013-11-22 04:31:00,
2013-11-21 23:32:00,43.9,37.5,30.33,SE,135,1.6,2.7,78,0.00,,SKC,-99.99,VWS V14.01,2013-11-22 04:32:00,
2013-11-21 23:33:00,43.9,37.5,30.33,SE,135,0.0,2.7,78,0.00,,SKC,-99.99,VWS V14.01,2013-11-22 04:33:00,
2013-11-21 23:34:00,43.9,37.8,30.33,SE,135,0.0,2.7,79,0.00,,SKC,-99.99,VWS V14.01,2013-11-22 04:34:00,
2013-11-21 23:35:00,44.1,38.0,30.33,SE,135,0.0,2.7,79,0.00,,SKC,-99.99,VWS V14.01,2013-11-22 04:35:00,
2013-11-21 23:36:00,44.1,38.0,30.33,SE,135,0.0,2.7,79,0.00,,SKC,-99.99,VWS V14.01,2013-11-22 04:36:00,
2013-11-21 23:37:00,44.1,38.0,30.33,SE,135,0.0,2.7,79,0.00,,SKC,-99.99,VWS V14.01,2013-11-22 04:37:00,
2013-11-21 23:38:00,44.1,38.0,30.33,SE,135,0.0,2.7,79,0.00,,SKC,-99.99,VWS V14.01,2013-11-22 04:38:00,
2013-11-21 23:39:00,44.1,38.0,30.33,SE,135,0.0,2.7,79,0.00,,SKC,-99.99,VWS V14.01,2013-11-22 04:39:00,
2013-11-21 23:40:00,44.1,38.3,30.33,SE,135,0.0,2.7,80,0.00,,SKC,-99.99,VWS V14.01,2013-11-22 04:40:00,
2013-11-21 23:41:00,44.1,38.3,30.33,SE,135,0.0,2.7,80,0.00,,SKC,-99.99,VWS V14.01,2013-11-22 04:41:00,
2013-11-21 23:42:00,44.1,38.3,30.33,SE,135,0.0,2.7,80,0.00,,SKC,-99.99,VWS V14.01,2013-11-22 04:42:00,
2013-11-21 23:43:00,44.1,38.3,30.33,SE,135,0.0,2.0,80,0.00,,SKC,-99.99,VWS V14.01,2013-11-22 04:43:00,
2013-11-21 23:44:00,44.1,38.3,30.33,SE,135,0.0,2.0,80,0.00,,SKC,-99.99,VWS V14.01,2013-11-22 04:44:00,
2013-11-21 23:45:00,44.1,38.3,30.33,SE,135,0.0,2.0,80,0.00,,SKC,-99.99,VWS V14.01,2013-11-22 04:45:00,
2013-11-21 23:46:00,44.1,38.3,30.33,SE,135,0.0,2.0,80,0.00,,SKC,-99.99,VWS V14.01,2013-11-22 04:46:00,
2013-11-21 23:47:00,44.1,38.3,30.33,SE,135,0.0,1.6,80,0.00,,SKC,-99.99,VWS V14.01,2013-11-22 04:47:00,
2013-11-21 23:48:00,44.1,38.3,30.33,SE,135,0.0,1.6,80,0.00,,SKC,-99.99,VWS V14.01,2013-11-22 04:48:00,
2013-11-21 23:49:00,44.1,38.3,30.33,SE,135,0.0,1.6,80,0.00,,SKC,-99.99,VWS V14.01,2013-11-22 04:49:00,
2013-11-21 23:50:00,44.2,38.5,30.33,SE,135,0.0,1.6,80,0.00,,SKC,-99.99,VWS V14.01,2013-11-22 04:50:00,
2013-11-21 23:51:00,44.2,38.5,30.33,SE,135,0.0,1.6,80,0.00,,SKC,-99.99,VWS V14.01,2013-11-22 04:51:00,
2013-11-21 23:52:00,44.2,38.5,30.33,SE,135,0.0,0.0,80,0.00,,SKC,-99.99,VWS V14.01,2013-11-22 04:52:00,
2013-11-21 23:53:00,44.2,38.8,30.33,SE,135,0.0,0.0,81,0.00,,SKC,-99.99,VWS V14.01,2013-11-22 04:53:00,
2013-11-21 23:54:00,44.2,38.8,30.33,SE,135,0.0,0.0,81,0.00,,SKC,-99.99,VWS V14.01,2013-11-22 04:54:00,
2013-11-21 23:55:00,44.2,38.8,30.33,SE,135,0.0,0.0,81,0.00,,SKC,-99.99,VWS V14.01,2013-11-22 04:55:00,
2013-11-21 23:56:00,44.2,38.8,30.33,SE,135,0.0,0.0,81,0.00,,SKC,-99.99,VWS V14.01,2013-11-22 04:56:00,
2013-11-21 23:57:00,44.2,38.8,30.33,SE,135,0.0,0.0,81,0.00,,SKC,-99.99,VWS V14.01,2013-11-22 04:57:00,
2013-11-21 23:58:00,44.2,38.8,30.33,SE,135,0.0,0.0,81,0.00,,SKC,-99.99,VWS V14.01,2013-11-22 04:58:00,
2013-11-21 23:59:00,44.2,38.8,30.33,SE,135,0.0,0.0,81,0.00,,SKC,-99.99,VWS V14.01,2013-11-22 04:59:00,